<?xml version="1.0" encoding="UTF-8" standalone="no" ?>
<gpx xmlns="http://www.topografix.com/GPX/1/1" xmlns:xsi="http://www.w3.org/2001/XMLSchema-instance" xsi:schemaLocation="http://www.topografix.com/GPX/1/1 http://www.topografix.com/GPX/1/1/gpx.xsd" version="1.1" creator="VisuGPX - https://www.visugpx.com">
  <metadata>
    <name>2025-03-24-46-luzech</name>
    <desc><![CDATA[Randonnée de 9km pour environ 200m de dénivelé positif. une belle balade autour de Luzech en traversant d'abord ses faubourg pour rejoindre St vincent, retour par le bord du Lot et dernière difficulté la montée vers la Pistoule pour admirer le point de vue]]></desc>
  </metadata>
  <trk>
    <name><![CDATA[2025-03-24 17:31:40]]></name>
    <extensions>
      <line xmlns="http://www.topografix.com/GPX/gpx_style/0/2">
        <color>0000FF</color>
        <width>4</width>
      </line>
    </extensions>
    <trkseg>
      <trkpt lat="44.47677" lon="1.28555">
        <ele>122.71</ele>
        <time>2025-03-24T13:07:33Z</time>
      </trkpt>
      <trkpt lat="44.47678" lon="1.28555">
        <ele>122.71</ele>
        <time>2025-03-24T13:07:34Z</time>
      </trkpt>
      <trkpt lat="44.4768" lon="1.28556">
        <ele>120.3</ele>
        <time>2025-03-24T13:07:36Z</time>
      </trkpt>
      <trkpt lat="44.47684" lon="1.28557">
        <ele>123.67</ele>
        <time>2025-03-24T13:07:40Z</time>
      </trkpt>
      <trkpt lat="44.47698" lon="1.28568">
        <ele>121.74</ele>
        <time>2025-03-24T13:07:57Z</time>
      </trkpt>
      <trkpt lat="44.47698" lon="1.28564">
        <ele>121.74</ele>
        <time>2025-03-24T13:08:15Z</time>
      </trkpt>
      <trkpt lat="44.47707" lon="1.28562">
        <ele>121.74</ele>
        <time>2025-03-24T13:08:34Z</time>
      </trkpt>
      <trkpt lat="44.47718" lon="1.28566">
        <ele>121.26</ele>
        <time>2025-03-24T13:08:50Z</time>
      </trkpt>
      <trkpt lat="44.47729" lon="1.28568">
        <ele>121.26</ele>
        <time>2025-03-24T13:09:06Z</time>
      </trkpt>
      <trkpt lat="44.47732" lon="1.28568">
        <ele>120.78</ele>
        <time>2025-03-24T13:09:19Z</time>
      </trkpt>
      <trkpt lat="44.47752" lon="1.28571">
        <ele>118.86</ele>
        <time>2025-03-24T13:09:38Z</time>
      </trkpt>
      <trkpt lat="44.47754" lon="1.28571">
        <ele>118.38</ele>
        <time>2025-03-24T13:09:40Z</time>
      </trkpt>
      <trkpt lat="44.47776" lon="1.28566">
        <ele>116.94</ele>
        <time>2025-03-24T13:10:00Z</time>
      </trkpt>
      <trkpt lat="44.47789" lon="1.28567">
        <ele>115.5</ele>
        <time>2025-03-24T13:10:13Z</time>
      </trkpt>
      <trkpt lat="44.47806" lon="1.28564">
        <ele>115.01</ele>
        <time>2025-03-24T13:10:29Z</time>
      </trkpt>
      <trkpt lat="44.47821" lon="1.28561">
        <ele>114.53</ele>
        <time>2025-03-24T13:10:45Z</time>
      </trkpt>
      <trkpt lat="44.47838" lon="1.28559">
        <ele>114.53</ele>
        <time>2025-03-24T13:11:01Z</time>
      </trkpt>
      <trkpt lat="44.47847" lon="1.28556">
        <ele>114.53</ele>
        <time>2025-03-24T13:11:11Z</time>
      </trkpt>
      <trkpt lat="44.47851" lon="1.28554">
        <ele>114.53</ele>
        <time>2025-03-24T13:11:15Z</time>
      </trkpt>
      <trkpt lat="44.4786" lon="1.28556">
        <ele>114.05</ele>
        <time>2025-03-24T13:11:24Z</time>
      </trkpt>
      <trkpt lat="44.47876" lon="1.28562">
        <ele>114.05</ele>
        <time>2025-03-24T13:11:42Z</time>
      </trkpt>
      <trkpt lat="44.47877" lon="1.28562">
        <ele>114.05</ele>
        <time>2025-03-24T13:11:43Z</time>
      </trkpt>
      <trkpt lat="44.47893" lon="1.28561">
        <ele>114.05</ele>
        <time>2025-03-24T13:11:59Z</time>
      </trkpt>
      <trkpt lat="44.47897" lon="1.28561">
        <ele>113.57</ele>
        <time>2025-03-24T13:12:13Z</time>
      </trkpt>
      <trkpt lat="44.47902" lon="1.2856">
        <ele>113.57</ele>
        <time>2025-03-24T13:12:28Z</time>
      </trkpt>
      <trkpt lat="44.47905" lon="1.28561">
        <ele>113.57</ele>
        <time>2025-03-24T13:12:47Z</time>
      </trkpt>
      <trkpt lat="44.47907" lon="1.28557">
        <ele>113.09</ele>
        <time>2025-03-24T13:13:06Z</time>
      </trkpt>
      <trkpt lat="44.4791" lon="1.28558">
        <ele>113.09</ele>
        <time>2025-03-24T13:13:21Z</time>
      </trkpt>
      <trkpt lat="44.47913" lon="1.28559">
        <ele>113.09</ele>
        <time>2025-03-24T13:13:40Z</time>
      </trkpt>
      <trkpt lat="44.47916" lon="1.28567">
        <ele>112.61</ele>
        <time>2025-03-24T13:13:59Z</time>
      </trkpt>
      <trkpt lat="44.47914" lon="1.28572">
        <ele>112.61</ele>
        <time>2025-03-24T13:14:11Z</time>
      </trkpt>
      <trkpt lat="44.47917" lon="1.2861">
        <ele>117.9</ele>
        <time>2025-03-24T13:15:33Z</time>
      </trkpt>
      <trkpt lat="44.47919" lon="1.28623">
        <ele>121.26</ele>
        <time>2025-03-24T13:15:49Z</time>
      </trkpt>
      <trkpt lat="44.47934" lon="1.28627">
        <ele>121.74</ele>
        <time>2025-03-24T13:16:06Z</time>
      </trkpt>
      <trkpt lat="44.4794" lon="1.28627">
        <ele>122.22</ele>
        <time>2025-03-24T13:16:25Z</time>
      </trkpt>
      <trkpt lat="44.47941" lon="1.28627">
        <ele>122.71</ele>
        <time>2025-03-24T13:16:39Z</time>
      </trkpt>
      <trkpt lat="44.47951" lon="1.28619">
        <ele>124.15</ele>
        <time>2025-03-24T13:16:56Z</time>
      </trkpt>
      <trkpt lat="44.47954" lon="1.28617">
        <ele>124.63</ele>
        <time>2025-03-24T13:17:11Z</time>
      </trkpt>
      <trkpt lat="44.47951" lon="1.28618">
        <ele>124.63</ele>
        <time>2025-03-24T13:17:37Z</time>
      </trkpt>
      <trkpt lat="44.47958" lon="1.28631">
        <ele>127.51</ele>
        <time>2025-03-24T13:17:53Z</time>
      </trkpt>
      <trkpt lat="44.47951" lon="1.28643">
        <ele>130.88</ele>
        <time>2025-03-24T13:18:10Z</time>
      </trkpt>
      <trkpt lat="44.47939" lon="1.28651">
        <ele>131.36</ele>
        <time>2025-03-24T13:18:25Z</time>
      </trkpt>
      <trkpt lat="44.47925" lon="1.28658">
        <ele>131.36</ele>
        <time>2025-03-24T13:18:40Z</time>
      </trkpt>
      <trkpt lat="44.47918" lon="1.28674">
        <ele>131.84</ele>
        <time>2025-03-24T13:18:56Z</time>
      </trkpt>
      <trkpt lat="44.47914" lon="1.28684">
        <ele>132.32</ele>
        <time>2025-03-24T13:19:12Z</time>
      </trkpt>
      <trkpt lat="44.47914" lon="1.28685">
        <ele>131.84</ele>
        <time>2025-03-24T13:19:33Z</time>
      </trkpt>
      <trkpt lat="44.47907" lon="1.28695">
        <ele>130.88</ele>
        <time>2025-03-24T13:19:49Z</time>
      </trkpt>
      <trkpt lat="44.47898" lon="1.28704">
        <ele>128.95</ele>
        <time>2025-03-24T13:20:06Z</time>
      </trkpt>
      <trkpt lat="44.47893" lon="1.28712">
        <ele>127.51</ele>
        <time>2025-03-24T13:20:22Z</time>
      </trkpt>
      <trkpt lat="44.47894" lon="1.28712">
        <ele>127.51</ele>
        <time>2025-03-24T13:20:23Z</time>
      </trkpt>
      <trkpt lat="44.47907" lon="1.28701">
        <ele>124.63</ele>
        <time>2025-03-24T13:20:43Z</time>
      </trkpt>
      <trkpt lat="44.47918" lon="1.28697">
        <ele>121.26</ele>
        <time>2025-03-24T13:20:59Z</time>
      </trkpt>
      <trkpt lat="44.47937" lon="1.28708">
        <ele>120.3</ele>
        <time>2025-03-24T13:21:16Z</time>
      </trkpt>
      <trkpt lat="44.47944" lon="1.28713">
        <ele>119.82</ele>
        <time>2025-03-24T13:21:31Z</time>
      </trkpt>
      <trkpt lat="44.47943" lon="1.28709">
        <ele>119.82</ele>
        <time>2025-03-24T13:21:51Z</time>
      </trkpt>
      <trkpt lat="44.47937" lon="1.28693">
        <ele>119.34</ele>
        <time>2025-03-24T13:22:23Z</time>
      </trkpt>
      <trkpt lat="44.4794" lon="1.28696">
        <ele>119.34</ele>
        <time>2025-03-24T13:22:43Z</time>
      </trkpt>
      <trkpt lat="44.47943" lon="1.28697">
        <ele>119.34</ele>
        <time>2025-03-24T13:22:57Z</time>
      </trkpt>
      <trkpt lat="44.47945" lon="1.287">
        <ele>119.34</ele>
        <time>2025-03-24T13:23:12Z</time>
      </trkpt>
      <trkpt lat="44.47951" lon="1.287">
        <ele>118.86</ele>
        <time>2025-03-24T13:23:29Z</time>
      </trkpt>
      <trkpt lat="44.47952" lon="1.287">
        <ele>118.86</ele>
        <time>2025-03-24T13:23:33Z</time>
      </trkpt>
      <trkpt lat="44.47966" lon="1.28693">
        <ele>118.86</ele>
        <time>2025-03-24T13:23:48Z</time>
      </trkpt>
      <trkpt lat="44.4798" lon="1.28685">
        <ele>118.86</ele>
        <time>2025-03-24T13:24:04Z</time>
      </trkpt>
      <trkpt lat="44.4799" lon="1.2868">
        <ele>118.86</ele>
        <time>2025-03-24T13:24:16Z</time>
      </trkpt>
      <trkpt lat="44.47995" lon="1.28672">
        <ele>120.3</ele>
        <time>2025-03-24T13:24:27Z</time>
      </trkpt>
      <trkpt lat="44.47999" lon="1.28674">
        <ele>119.82</ele>
        <time>2025-03-24T13:24:51Z</time>
      </trkpt>
      <trkpt lat="44.48" lon="1.28674">
        <ele>119.82</ele>
        <time>2025-03-24T13:25:18Z</time>
      </trkpt>
      <trkpt lat="44.4801" lon="1.28673">
        <ele>119.82</ele>
        <time>2025-03-24T13:25:36Z</time>
      </trkpt>
      <trkpt lat="44.48027" lon="1.28661">
        <ele>119.82</ele>
        <time>2025-03-24T13:25:53Z</time>
      </trkpt>
      <trkpt lat="44.48029" lon="1.28661">
        <ele>119.82</ele>
        <time>2025-03-24T13:25:54Z</time>
      </trkpt>
      <trkpt lat="44.4805" lon="1.28652">
        <ele>119.34</ele>
        <time>2025-03-24T13:26:12Z</time>
      </trkpt>
      <trkpt lat="44.48068" lon="1.28642">
        <ele>119.34</ele>
        <time>2025-03-24T13:26:28Z</time>
      </trkpt>
      <trkpt lat="44.48073" lon="1.2864">
        <ele>119.34</ele>
        <time>2025-03-24T13:26:32Z</time>
      </trkpt>
      <trkpt lat="44.48091" lon="1.28635">
        <ele>119.34</ele>
        <time>2025-03-24T13:26:47Z</time>
      </trkpt>
      <trkpt lat="44.48107" lon="1.28629">
        <ele>118.86</ele>
        <time>2025-03-24T13:27:03Z</time>
      </trkpt>
      <trkpt lat="44.48121" lon="1.28626">
        <ele>118.86</ele>
        <time>2025-03-24T13:27:16Z</time>
      </trkpt>
      <trkpt lat="44.48129" lon="1.28617">
        <ele>118.38</ele>
        <time>2025-03-24T13:27:29Z</time>
      </trkpt>
      <trkpt lat="44.48129" lon="1.2862">
        <ele>118.38</ele>
        <time>2025-03-24T13:27:48Z</time>
      </trkpt>
      <trkpt lat="44.48127" lon="1.28619">
        <ele>117.9</ele>
        <time>2025-03-24T13:28:08Z</time>
      </trkpt>
      <trkpt lat="44.48128" lon="1.2862">
        <ele>117.9</ele>
        <time>2025-03-24T13:28:24Z</time>
      </trkpt>
      <trkpt lat="44.48133" lon="1.28616">
        <ele>119.82</ele>
        <time>2025-03-24T13:28:43Z</time>
      </trkpt>
      <trkpt lat="44.48139" lon="1.28611">
        <ele>122.71</ele>
        <time>2025-03-24T13:29:01Z</time>
      </trkpt>
      <trkpt lat="44.48147" lon="1.28613">
        <ele>123.67</ele>
        <time>2025-03-24T13:29:16Z</time>
      </trkpt>
      <trkpt lat="44.48148" lon="1.28613">
        <ele>123.67</ele>
        <time>2025-03-24T13:29:32Z</time>
      </trkpt>
      <trkpt lat="44.48149" lon="1.28619">
        <ele>123.19</ele>
        <time>2025-03-24T13:29:46Z</time>
      </trkpt>
      <trkpt lat="44.4815" lon="1.2863">
        <ele>123.19</ele>
        <time>2025-03-24T13:30:02Z</time>
      </trkpt>
      <trkpt lat="44.4815" lon="1.28634">
        <ele>123.19</ele>
        <time>2025-03-24T13:30:06Z</time>
      </trkpt>
      <trkpt lat="44.48151" lon="1.2865">
        <ele>123.19</ele>
        <time>2025-03-24T13:30:22Z</time>
      </trkpt>
      <trkpt lat="44.48152" lon="1.28671">
        <ele>123.19</ele>
        <time>2025-03-24T13:30:36Z</time>
      </trkpt>
      <trkpt lat="44.48155" lon="1.28697">
        <ele>123.19</ele>
        <time>2025-03-24T13:30:54Z</time>
      </trkpt>
      <trkpt lat="44.48157" lon="1.28719">
        <ele>123.19</ele>
        <time>2025-03-24T13:31:11Z</time>
      </trkpt>
      <trkpt lat="44.48157" lon="1.28738">
        <ele>122.71</ele>
        <time>2025-03-24T13:31:24Z</time>
      </trkpt>
      <trkpt lat="44.48159" lon="1.28765">
        <ele>123.19</ele>
        <time>2025-03-24T13:31:42Z</time>
      </trkpt>
      <trkpt lat="44.48159" lon="1.28788">
        <ele>123.19</ele>
        <time>2025-03-24T13:31:57Z</time>
      </trkpt>
      <trkpt lat="44.48161" lon="1.28808">
        <ele>122.71</ele>
        <time>2025-03-24T13:32:11Z</time>
      </trkpt>
      <trkpt lat="44.48162" lon="1.28835">
        <ele>122.71</ele>
        <time>2025-03-24T13:32:28Z</time>
      </trkpt>
      <trkpt lat="44.48164" lon="1.28857">
        <ele>123.19</ele>
        <time>2025-03-24T13:32:43Z</time>
      </trkpt>
      <trkpt lat="44.48166" lon="1.28876">
        <ele>123.19</ele>
        <time>2025-03-24T13:32:58Z</time>
      </trkpt>
      <trkpt lat="44.48168" lon="1.28899">
        <ele>123.19</ele>
        <time>2025-03-24T13:33:14Z</time>
      </trkpt>
      <trkpt lat="44.48172" lon="1.28929">
        <ele>123.67</ele>
        <time>2025-03-24T13:33:34Z</time>
      </trkpt>
      <trkpt lat="44.48177" lon="1.28952">
        <ele>123.67</ele>
        <time>2025-03-24T13:33:51Z</time>
      </trkpt>
      <trkpt lat="44.48179" lon="1.28972">
        <ele>123.19</ele>
        <time>2025-03-24T13:34:06Z</time>
      </trkpt>
      <trkpt lat="44.48183" lon="1.28996">
        <ele>123.67</ele>
        <time>2025-03-24T13:34:24Z</time>
      </trkpt>
      <trkpt lat="44.48189" lon="1.29021">
        <ele>123.67</ele>
        <time>2025-03-24T13:34:42Z</time>
      </trkpt>
      <trkpt lat="44.48196" lon="1.2904">
        <ele>124.15</ele>
        <time>2025-03-24T13:34:56Z</time>
      </trkpt>
      <trkpt lat="44.48203" lon="1.29063">
        <ele>124.15</ele>
        <time>2025-03-24T13:35:13Z</time>
      </trkpt>
      <trkpt lat="44.48211" lon="1.29089">
        <ele>124.15</ele>
        <time>2025-03-24T13:35:32Z</time>
      </trkpt>
      <trkpt lat="44.48217" lon="1.29105">
        <ele>124.63</ele>
        <time>2025-03-24T13:35:45Z</time>
      </trkpt>
      <trkpt lat="44.48222" lon="1.29122">
        <ele>124.15</ele>
        <time>2025-03-24T13:35:59Z</time>
      </trkpt>
      <trkpt lat="44.48229" lon="1.29143">
        <ele>124.63</ele>
        <time>2025-03-24T13:36:16Z</time>
      </trkpt>
      <trkpt lat="44.48238" lon="1.29168">
        <ele>125.11</ele>
        <time>2025-03-24T13:36:33Z</time>
      </trkpt>
      <trkpt lat="44.48247" lon="1.29196">
        <ele>125.11</ele>
        <time>2025-03-24T13:36:52Z</time>
      </trkpt>
      <trkpt lat="44.48253" lon="1.29217">
        <ele>125.11</ele>
        <time>2025-03-24T13:37:08Z</time>
      </trkpt>
      <trkpt lat="44.48261" lon="1.29239">
        <ele>125.59</ele>
        <time>2025-03-24T13:37:24Z</time>
      </trkpt>
      <trkpt lat="44.48269" lon="1.29262">
        <ele>125.11</ele>
        <time>2025-03-24T13:37:41Z</time>
      </trkpt>
      <trkpt lat="44.48274" lon="1.29279">
        <ele>125.59</ele>
        <time>2025-03-24T13:37:56Z</time>
      </trkpt>
      <trkpt lat="44.4828" lon="1.29289">
        <ele>126.07</ele>
        <time>2025-03-24T13:38:12Z</time>
      </trkpt>
      <trkpt lat="44.48281" lon="1.29289">
        <ele>125.59</ele>
        <time>2025-03-24T13:38:37Z</time>
      </trkpt>
      <trkpt lat="44.48282" lon="1.29291">
        <ele>125.59</ele>
        <time>2025-03-24T13:39:01Z</time>
      </trkpt>
      <trkpt lat="44.48282" lon="1.29291">
        <ele>126.07</ele>
        <time>2025-03-24T13:39:28Z</time>
      </trkpt>
      <trkpt lat="44.48285" lon="1.29292">
        <ele>125.59</ele>
        <time>2025-03-24T13:39:50Z</time>
      </trkpt>
      <trkpt lat="44.48285" lon="1.29297">
        <ele>126.07</ele>
        <time>2025-03-24T13:40:06Z</time>
      </trkpt>
      <trkpt lat="44.48282" lon="1.29293">
        <ele>126.07</ele>
        <time>2025-03-24T13:40:29Z</time>
      </trkpt>
      <trkpt lat="44.48284" lon="1.29294">
        <ele>126.07</ele>
        <time>2025-03-24T13:40:45Z</time>
      </trkpt>
      <trkpt lat="44.48284" lon="1.29296">
        <ele>126.07</ele>
        <time>2025-03-24T13:41:05Z</time>
      </trkpt>
      <trkpt lat="44.48286" lon="1.29301">
        <ele>125.59</ele>
        <time>2025-03-24T13:41:20Z</time>
      </trkpt>
      <trkpt lat="44.48286" lon="1.29299">
        <ele>125.59</ele>
        <time>2025-03-24T13:41:35Z</time>
      </trkpt>
      <trkpt lat="44.48288" lon="1.29299">
        <ele>125.59</ele>
        <time>2025-03-24T13:42:02Z</time>
      </trkpt>
      <trkpt lat="44.48286" lon="1.293">
        <ele>125.59</ele>
        <time>2025-03-24T13:42:24Z</time>
      </trkpt>
      <trkpt lat="44.48286" lon="1.29303">
        <ele>126.07</ele>
        <time>2025-03-24T13:42:50Z</time>
      </trkpt>
      <trkpt lat="44.48287" lon="1.29306">
        <ele>125.59</ele>
        <time>2025-03-24T13:43:17Z</time>
      </trkpt>
      <trkpt lat="44.48295" lon="1.29324">
        <ele>127.51</ele>
        <time>2025-03-24T13:43:37Z</time>
      </trkpt>
      <trkpt lat="44.48304" lon="1.29344">
        <ele>128.95</ele>
        <time>2025-03-24T13:43:56Z</time>
      </trkpt>
      <trkpt lat="44.48308" lon="1.29354">
        <ele>130.88</ele>
        <time>2025-03-24T13:44:05Z</time>
      </trkpt>
      <trkpt lat="44.48315" lon="1.29372">
        <ele>132.32</ele>
        <time>2025-03-24T13:44:21Z</time>
      </trkpt>
      <trkpt lat="44.4832" lon="1.29383">
        <ele>132.8</ele>
        <time>2025-03-24T13:44:36Z</time>
      </trkpt>
      <trkpt lat="44.48329" lon="1.29403">
        <ele>134.24</ele>
        <time>2025-03-24T13:44:55Z</time>
      </trkpt>
      <trkpt lat="44.4833" lon="1.29405">
        <ele>134.24</ele>
        <time>2025-03-24T13:44:57Z</time>
      </trkpt>
      <trkpt lat="44.48338" lon="1.2943">
        <ele>134.24</ele>
        <time>2025-03-24T13:45:16Z</time>
      </trkpt>
      <trkpt lat="44.48338" lon="1.29425">
        <ele>134.24</ele>
        <time>2025-03-24T13:45:31Z</time>
      </trkpt>
      <trkpt lat="44.48333" lon="1.29419">
        <ele>133.76</ele>
        <time>2025-03-24T13:45:49Z</time>
      </trkpt>
      <trkpt lat="44.48338" lon="1.29426">
        <ele>133.76</ele>
        <time>2025-03-24T13:46:05Z</time>
      </trkpt>
      <trkpt lat="44.48343" lon="1.29446">
        <ele>133.76</ele>
        <time>2025-03-24T13:46:20Z</time>
      </trkpt>
      <trkpt lat="44.48349" lon="1.29473">
        <ele>133.28</ele>
        <time>2025-03-24T13:46:36Z</time>
      </trkpt>
      <trkpt lat="44.48357" lon="1.29501">
        <ele>133.28</ele>
        <time>2025-03-24T13:46:53Z</time>
      </trkpt>
      <trkpt lat="44.48364" lon="1.29529">
        <ele>132.8</ele>
        <time>2025-03-24T13:47:11Z</time>
      </trkpt>
      <trkpt lat="44.4837" lon="1.29556">
        <ele>133.28</ele>
        <time>2025-03-24T13:47:29Z</time>
      </trkpt>
      <trkpt lat="44.48376" lon="1.29581">
        <ele>133.76</ele>
        <time>2025-03-24T13:47:45Z</time>
      </trkpt>
      <trkpt lat="44.48376" lon="1.29591">
        <ele>133.76</ele>
        <time>2025-03-24T13:47:52Z</time>
      </trkpt>
      <trkpt lat="44.48376" lon="1.29597">
        <ele>133.76</ele>
        <time>2025-03-24T13:47:56Z</time>
      </trkpt>
      <trkpt lat="44.48378" lon="1.29623">
        <ele>133.76</ele>
        <time>2025-03-24T13:48:13Z</time>
      </trkpt>
      <trkpt lat="44.48379" lon="1.29648">
        <ele>132.32</ele>
        <time>2025-03-24T13:48:29Z</time>
      </trkpt>
      <trkpt lat="44.48378" lon="1.29661">
        <ele>131.84</ele>
        <time>2025-03-24T13:48:41Z</time>
      </trkpt>
      <trkpt lat="44.48375" lon="1.29686">
        <ele>130.4</ele>
        <time>2025-03-24T13:48:57Z</time>
      </trkpt>
      <trkpt lat="44.48375" lon="1.29691">
        <ele>129.43</ele>
        <time>2025-03-24T13:49:00Z</time>
      </trkpt>
      <trkpt lat="44.48369" lon="1.29718">
        <ele>128.95</ele>
        <time>2025-03-24T13:49:18Z</time>
      </trkpt>
      <trkpt lat="44.48364" lon="1.29738">
        <ele>127.51</ele>
        <time>2025-03-24T13:49:33Z</time>
      </trkpt>
      <trkpt lat="44.4836" lon="1.29751">
        <ele>126.07</ele>
        <time>2025-03-24T13:49:42Z</time>
      </trkpt>
      <trkpt lat="44.48351" lon="1.29763">
        <ele>126.07</ele>
        <time>2025-03-24T13:49:52Z</time>
      </trkpt>
      <trkpt lat="44.48342" lon="1.29788">
        <ele>126.07</ele>
        <time>2025-03-24T13:50:08Z</time>
      </trkpt>
      <trkpt lat="44.48334" lon="1.2981">
        <ele>125.59</ele>
        <time>2025-03-24T13:50:24Z</time>
      </trkpt>
      <trkpt lat="44.48326" lon="1.29826">
        <ele>127.03</ele>
        <time>2025-03-24T13:50:40Z</time>
      </trkpt>
      <trkpt lat="44.48325" lon="1.29827">
        <ele>127.03</ele>
        <time>2025-03-24T13:50:41Z</time>
      </trkpt>
      <trkpt lat="44.48324" lon="1.29835">
        <ele>127.03</ele>
        <time>2025-03-24T13:50:46Z</time>
      </trkpt>
      <trkpt lat="44.48314" lon="1.29857">
        <ele>127.03</ele>
        <time>2025-03-24T13:51:02Z</time>
      </trkpt>
      <trkpt lat="44.48303" lon="1.29877">
        <ele>126.55</ele>
        <time>2025-03-24T13:51:18Z</time>
      </trkpt>
      <trkpt lat="44.48289" lon="1.29896">
        <ele>127.03</ele>
        <time>2025-03-24T13:51:34Z</time>
      </trkpt>
      <trkpt lat="44.48288" lon="1.299">
        <ele>127.03</ele>
        <time>2025-03-24T13:51:37Z</time>
      </trkpt>
      <trkpt lat="44.48277" lon="1.29912">
        <ele>127.03</ele>
        <time>2025-03-24T13:51:47Z</time>
      </trkpt>
      <trkpt lat="44.48261" lon="1.29931">
        <ele>127.51</ele>
        <time>2025-03-24T13:52:04Z</time>
      </trkpt>
      <trkpt lat="44.48253" lon="1.29939">
        <ele>127.51</ele>
        <time>2025-03-24T13:52:13Z</time>
      </trkpt>
      <trkpt lat="44.48247" lon="1.29945">
        <ele>127.51</ele>
        <time>2025-03-24T13:52:19Z</time>
      </trkpt>
      <trkpt lat="44.48232" lon="1.29958">
        <ele>127.51</ele>
        <time>2025-03-24T13:52:35Z</time>
      </trkpt>
      <trkpt lat="44.4822" lon="1.2997">
        <ele>127.51</ele>
        <time>2025-03-24T13:52:48Z</time>
      </trkpt>
      <trkpt lat="44.48208" lon="1.29983">
        <ele>127.51</ele>
        <time>2025-03-24T13:53:02Z</time>
      </trkpt>
      <trkpt lat="44.48193" lon="1.29997">
        <ele>127.99</ele>
        <time>2025-03-24T13:53:17Z</time>
      </trkpt>
      <trkpt lat="44.48178" lon="1.30013">
        <ele>127.99</ele>
        <time>2025-03-24T13:53:33Z</time>
      </trkpt>
      <trkpt lat="44.48164" lon="1.30027">
        <ele>127.99</ele>
        <time>2025-03-24T13:53:48Z</time>
      </trkpt>
      <trkpt lat="44.4815" lon="1.30042">
        <ele>127.99</ele>
        <time>2025-03-24T13:54:02Z</time>
      </trkpt>
      <trkpt lat="44.48134" lon="1.30056">
        <ele>128.95</ele>
        <time>2025-03-24T13:54:20Z</time>
      </trkpt>
      <trkpt lat="44.4812" lon="1.3007">
        <ele>128.47</ele>
        <time>2025-03-24T13:54:35Z</time>
      </trkpt>
      <trkpt lat="44.48111" lon="1.30079">
        <ele>128.47</ele>
        <time>2025-03-24T13:54:48Z</time>
      </trkpt>
      <trkpt lat="44.48098" lon="1.30092">
        <ele>128.47</ele>
        <time>2025-03-24T13:55:04Z</time>
      </trkpt>
      <trkpt lat="44.48085" lon="1.30105">
        <ele>128.95</ele>
        <time>2025-03-24T13:55:20Z</time>
      </trkpt>
      <trkpt lat="44.48068" lon="1.30121">
        <ele>128.95</ele>
        <time>2025-03-24T13:55:37Z</time>
      </trkpt>
      <trkpt lat="44.48054" lon="1.30132">
        <ele>129.43</ele>
        <time>2025-03-24T13:55:51Z</time>
      </trkpt>
      <trkpt lat="44.48039" lon="1.30148">
        <ele>129.43</ele>
        <time>2025-03-24T13:56:07Z</time>
      </trkpt>
      <trkpt lat="44.48022" lon="1.30166">
        <ele>129.92</ele>
        <time>2025-03-24T13:56:24Z</time>
      </trkpt>
      <trkpt lat="44.48007" lon="1.30183">
        <ele>129.92</ele>
        <time>2025-03-24T13:56:41Z</time>
      </trkpt>
      <trkpt lat="44.47993" lon="1.30197">
        <ele>130.4</ele>
        <time>2025-03-24T13:56:57Z</time>
      </trkpt>
      <trkpt lat="44.47987" lon="1.30204">
        <ele>129.92</ele>
        <time>2025-03-24T13:57:12Z</time>
      </trkpt>
      <trkpt lat="44.47979" lon="1.30212">
        <ele>129.92</ele>
        <time>2025-03-24T13:57:27Z</time>
      </trkpt>
      <trkpt lat="44.47977" lon="1.30213">
        <ele>129.92</ele>
        <time>2025-03-24T13:57:29Z</time>
      </trkpt>
      <trkpt lat="44.4797" lon="1.30218">
        <ele>128.95</ele>
        <time>2025-03-24T13:57:34Z</time>
      </trkpt>
      <trkpt lat="44.47961" lon="1.30228">
        <ele>128.95</ele>
        <time>2025-03-24T13:57:43Z</time>
      </trkpt>
      <trkpt lat="44.47948" lon="1.30254">
        <ele>128.95</ele>
        <time>2025-03-24T13:58:02Z</time>
      </trkpt>
      <trkpt lat="44.47943" lon="1.30262">
        <ele>128.95</ele>
        <time>2025-03-24T13:58:09Z</time>
      </trkpt>
      <trkpt lat="44.47932" lon="1.30291">
        <ele>129.92</ele>
        <time>2025-03-24T13:58:29Z</time>
      </trkpt>
      <trkpt lat="44.47926" lon="1.30316">
        <ele>129.92</ele>
        <time>2025-03-24T13:58:46Z</time>
      </trkpt>
      <trkpt lat="44.47921" lon="1.30338">
        <ele>130.4</ele>
        <time>2025-03-24T13:59:03Z</time>
      </trkpt>
      <trkpt lat="44.47914" lon="1.30364">
        <ele>131.36</ele>
        <time>2025-03-24T13:59:21Z</time>
      </trkpt>
      <trkpt lat="44.47909" lon="1.30377">
        <ele>131.84</ele>
        <time>2025-03-24T13:59:34Z</time>
      </trkpt>
      <trkpt lat="44.47907" lon="1.30381">
        <ele>131.84</ele>
        <time>2025-03-24T13:59:38Z</time>
      </trkpt>
      <trkpt lat="44.47903" lon="1.30405">
        <ele>132.32</ele>
        <time>2025-03-24T13:59:55Z</time>
      </trkpt>
      <trkpt lat="44.47902" lon="1.30434">
        <ele>132.8</ele>
        <time>2025-03-24T14:00:13Z</time>
      </trkpt>
      <trkpt lat="44.47904" lon="1.30458">
        <ele>132.8</ele>
        <time>2025-03-24T14:00:28Z</time>
      </trkpt>
      <trkpt lat="44.47901" lon="1.30483">
        <ele>133.28</ele>
        <time>2025-03-24T14:00:45Z</time>
      </trkpt>
      <trkpt lat="44.47899" lon="1.30485">
        <ele>133.28</ele>
        <time>2025-03-24T14:00:47Z</time>
      </trkpt>
      <trkpt lat="44.47895" lon="1.30487">
        <ele>133.28</ele>
        <time>2025-03-24T14:00:51Z</time>
      </trkpt>
      <trkpt lat="44.47879" lon="1.30482">
        <ele>133.76</ele>
        <time>2025-03-24T14:01:08Z</time>
      </trkpt>
      <trkpt lat="44.47873" lon="1.30477">
        <ele>133.76</ele>
        <time>2025-03-24T14:01:15Z</time>
      </trkpt>
      <trkpt lat="44.4787" lon="1.30476">
        <ele>133.76</ele>
        <time>2025-03-24T14:01:18Z</time>
      </trkpt>
      <trkpt lat="44.47869" lon="1.30475">
        <ele>133.76</ele>
        <time>2025-03-24T14:01:20Z</time>
      </trkpt>
      <trkpt lat="44.47858" lon="1.30466">
        <ele>134.24</ele>
        <time>2025-03-24T14:01:34Z</time>
      </trkpt>
      <trkpt lat="44.47843" lon="1.30457">
        <ele>134.72</ele>
        <time>2025-03-24T14:01:51Z</time>
      </trkpt>
      <trkpt lat="44.47829" lon="1.30449">
        <ele>134.72</ele>
        <time>2025-03-24T14:02:04Z</time>
      </trkpt>
      <trkpt lat="44.47815" lon="1.3043">
        <ele>135.68</ele>
        <time>2025-03-24T14:02:21Z</time>
      </trkpt>
      <trkpt lat="44.47811" lon="1.30404">
        <ele>136.64</ele>
        <time>2025-03-24T14:02:39Z</time>
      </trkpt>
      <trkpt lat="44.47801" lon="1.30385">
        <ele>136.64</ele>
        <time>2025-03-24T14:02:55Z</time>
      </trkpt>
      <trkpt lat="44.47802" lon="1.30382">
        <ele>136.64</ele>
        <time>2025-03-24T14:03:06Z</time>
      </trkpt>
      <trkpt lat="44.47799" lon="1.30378">
        <ele>136.64</ele>
        <time>2025-03-24T14:03:20Z</time>
      </trkpt>
      <trkpt lat="44.47799" lon="1.30379">
        <ele>136.64</ele>
        <time>2025-03-24T14:03:21Z</time>
      </trkpt>
      <trkpt lat="44.47801" lon="1.3039">
        <ele>136.64</ele>
        <time>2025-03-24T14:03:33Z</time>
      </trkpt>
      <trkpt lat="44.478" lon="1.30388">
        <ele>137.13</ele>
        <time>2025-03-24T14:03:36Z</time>
      </trkpt>
      <trkpt lat="44.47798" lon="1.30364">
        <ele>137.13</ele>
        <time>2025-03-24T14:03:52Z</time>
      </trkpt>
      <trkpt lat="44.478" lon="1.30333">
        <ele>137.13</ele>
        <time>2025-03-24T14:04:12Z</time>
      </trkpt>
      <trkpt lat="44.47799" lon="1.30333">
        <ele>137.13</ele>
        <time>2025-03-24T14:04:13Z</time>
      </trkpt>
      <trkpt lat="44.47782" lon="1.3032">
        <ele>137.61</ele>
        <time>2025-03-24T14:04:30Z</time>
      </trkpt>
      <trkpt lat="44.47768" lon="1.30309">
        <ele>138.09</ele>
        <time>2025-03-24T14:04:44Z</time>
      </trkpt>
      <trkpt lat="44.47758" lon="1.30302">
        <ele>139.05</ele>
        <time>2025-03-24T14:04:54Z</time>
      </trkpt>
      <trkpt lat="44.47741" lon="1.30306">
        <ele>139.53</ele>
        <time>2025-03-24T14:05:09Z</time>
      </trkpt>
      <trkpt lat="44.47731" lon="1.30305">
        <ele>140.49</ele>
        <time>2025-03-24T14:05:20Z</time>
      </trkpt>
      <trkpt lat="44.47726" lon="1.30297">
        <ele>140.97</ele>
        <time>2025-03-24T14:05:27Z</time>
      </trkpt>
      <trkpt lat="44.47718" lon="1.30287">
        <ele>140.97</ele>
        <time>2025-03-24T14:05:37Z</time>
      </trkpt>
      <trkpt lat="44.47716" lon="1.30286">
        <ele>141.45</ele>
        <time>2025-03-24T14:05:39Z</time>
      </trkpt>
      <trkpt lat="44.477" lon="1.30268">
        <ele>142.89</ele>
        <time>2025-03-24T14:05:57Z</time>
      </trkpt>
      <trkpt lat="44.47696" lon="1.30265">
        <ele>142.89</ele>
        <time>2025-03-24T14:06:03Z</time>
      </trkpt>
      <trkpt lat="44.47684" lon="1.30252">
        <ele>142.89</ele>
        <time>2025-03-24T14:06:16Z</time>
      </trkpt>
      <trkpt lat="44.4768" lon="1.30248">
        <ele>143.37</ele>
        <time>2025-03-24T14:06:20Z</time>
      </trkpt>
      <trkpt lat="44.47676" lon="1.30247">
        <ele>143.85</ele>
        <time>2025-03-24T14:06:23Z</time>
      </trkpt>
      <trkpt lat="44.47667" lon="1.30241">
        <ele>143.85</ele>
        <time>2025-03-24T14:06:32Z</time>
      </trkpt>
      <trkpt lat="44.47656" lon="1.30228">
        <ele>144.34</ele>
        <time>2025-03-24T14:06:47Z</time>
      </trkpt>
      <trkpt lat="44.47645" lon="1.30219">
        <ele>144.82</ele>
        <time>2025-03-24T14:07:00Z</time>
      </trkpt>
      <trkpt lat="44.47644" lon="1.30218">
        <ele>144.82</ele>
        <time>2025-03-24T14:07:02Z</time>
      </trkpt>
      <trkpt lat="44.47638" lon="1.30216">
        <ele>144.82</ele>
        <time>2025-03-24T14:07:16Z</time>
      </trkpt>
      <trkpt lat="44.47639" lon="1.30214">
        <ele>144.82</ele>
        <time>2025-03-24T14:07:30Z</time>
      </trkpt>
      <trkpt lat="44.47639" lon="1.30215">
        <ele>144.82</ele>
        <time>2025-03-24T14:07:42Z</time>
      </trkpt>
      <trkpt lat="44.47628" lon="1.30214">
        <ele>144.82</ele>
        <time>2025-03-24T14:07:56Z</time>
      </trkpt>
      <trkpt lat="44.47626" lon="1.30216">
        <ele>144.82</ele>
        <time>2025-03-24T14:08:08Z</time>
      </trkpt>
      <trkpt lat="44.47617" lon="1.3021">
        <ele>144.82</ele>
        <time>2025-03-24T14:08:21Z</time>
      </trkpt>
      <trkpt lat="44.47616" lon="1.30206">
        <ele>144.34</ele>
        <time>2025-03-24T14:08:38Z</time>
      </trkpt>
      <trkpt lat="44.47616" lon="1.30204">
        <ele>144.34</ele>
        <time>2025-03-24T14:08:59Z</time>
      </trkpt>
      <trkpt lat="44.47617" lon="1.30206">
        <ele>143.37</ele>
        <time>2025-03-24T14:09:18Z</time>
      </trkpt>
      <trkpt lat="44.47605" lon="1.30202">
        <ele>142.89</ele>
        <time>2025-03-24T14:09:34Z</time>
      </trkpt>
      <trkpt lat="44.47586" lon="1.30187">
        <ele>141.93</ele>
        <time>2025-03-24T14:09:53Z</time>
      </trkpt>
      <trkpt lat="44.47567" lon="1.30176">
        <ele>140.97</ele>
        <time>2025-03-24T14:10:10Z</time>
      </trkpt>
      <trkpt lat="44.47551" lon="1.30161">
        <ele>140.97</ele>
        <time>2025-03-24T14:10:28Z</time>
      </trkpt>
      <trkpt lat="44.47546" lon="1.30155">
        <ele>140.49</ele>
        <time>2025-03-24T14:10:38Z</time>
      </trkpt>
      <trkpt lat="44.47542" lon="1.30136">
        <ele>139.53</ele>
        <time>2025-03-24T14:10:50Z</time>
      </trkpt>
      <trkpt lat="44.47525" lon="1.30123">
        <ele>138.57</ele>
        <time>2025-03-24T14:11:09Z</time>
      </trkpt>
      <trkpt lat="44.47518" lon="1.30117">
        <ele>138.09</ele>
        <time>2025-03-24T14:11:17Z</time>
      </trkpt>
      <trkpt lat="44.47514" lon="1.30114">
        <ele>138.09</ele>
        <time>2025-03-24T14:11:21Z</time>
      </trkpt>
      <trkpt lat="44.47491" lon="1.30099">
        <ele>136.64</ele>
        <time>2025-03-24T14:11:42Z</time>
      </trkpt>
      <trkpt lat="44.47469" lon="1.30087">
        <ele>135.68</ele>
        <time>2025-03-24T14:12:02Z</time>
      </trkpt>
      <trkpt lat="44.47451" lon="1.30081">
        <ele>133.76</ele>
        <time>2025-03-24T14:12:19Z</time>
      </trkpt>
      <trkpt lat="44.47424" lon="1.3008">
        <ele>131.84</ele>
        <time>2025-03-24T14:12:41Z</time>
      </trkpt>
      <trkpt lat="44.47404" lon="1.30083">
        <ele>129.92</ele>
        <time>2025-03-24T14:12:58Z</time>
      </trkpt>
      <trkpt lat="44.47387" lon="1.3008">
        <ele>127.51</ele>
        <time>2025-03-24T14:13:15Z</time>
      </trkpt>
      <trkpt lat="44.47385" lon="1.30079">
        <ele>129.43</ele>
        <time>2025-03-24T14:13:17Z</time>
      </trkpt>
      <trkpt lat="44.47382" lon="1.30078">
        <ele>127.99</ele>
        <time>2025-03-24T14:13:19Z</time>
      </trkpt>
      <trkpt lat="44.47366" lon="1.30071">
        <ele>126.55</ele>
        <time>2025-03-24T14:13:34Z</time>
      </trkpt>
      <trkpt lat="44.47351" lon="1.30068">
        <ele>125.59</ele>
        <time>2025-03-24T14:13:49Z</time>
      </trkpt>
      <trkpt lat="44.47347" lon="1.3008">
        <ele>127.03</ele>
        <time>2025-03-24T14:14:00Z</time>
      </trkpt>
      <trkpt lat="44.47342" lon="1.30099">
        <ele>129.43</ele>
        <time>2025-03-24T14:14:16Z</time>
      </trkpt>
      <trkpt lat="44.4734" lon="1.30106">
        <ele>130.4</ele>
        <time>2025-03-24T14:14:21Z</time>
      </trkpt>
      <trkpt lat="44.47336" lon="1.30123">
        <ele>131.84</ele>
        <time>2025-03-24T14:14:34Z</time>
      </trkpt>
      <trkpt lat="44.47333" lon="1.30138">
        <ele>133.28</ele>
        <time>2025-03-24T14:14:50Z</time>
      </trkpt>
      <trkpt lat="44.47333" lon="1.30145">
        <ele>134.24</ele>
        <time>2025-03-24T14:15:10Z</time>
      </trkpt>
      <trkpt lat="44.47329" lon="1.30158">
        <ele>135.68</ele>
        <time>2025-03-24T14:15:28Z</time>
      </trkpt>
      <trkpt lat="44.47324" lon="1.30174">
        <ele>138.09</ele>
        <time>2025-03-24T14:15:45Z</time>
      </trkpt>
      <trkpt lat="44.4731" lon="1.30177">
        <ele>139.05</ele>
        <time>2025-03-24T14:16:01Z</time>
      </trkpt>
      <trkpt lat="44.47297" lon="1.30175">
        <ele>139.53</ele>
        <time>2025-03-24T14:16:17Z</time>
      </trkpt>
      <trkpt lat="44.47286" lon="1.30174">
        <ele>139.53</ele>
        <time>2025-03-24T14:16:30Z</time>
      </trkpt>
      <trkpt lat="44.4727" lon="1.30171">
        <ele>139.53</ele>
        <time>2025-03-24T14:16:47Z</time>
      </trkpt>
      <trkpt lat="44.47257" lon="1.3017">
        <ele>140.01</ele>
        <time>2025-03-24T14:17:01Z</time>
      </trkpt>
      <trkpt lat="44.47243" lon="1.30169">
        <ele>140.97</ele>
        <time>2025-03-24T14:17:15Z</time>
      </trkpt>
      <trkpt lat="44.4723" lon="1.30166">
        <ele>140.97</ele>
        <time>2025-03-24T14:17:29Z</time>
      </trkpt>
      <trkpt lat="44.4721" lon="1.30161">
        <ele>140.97</ele>
        <time>2025-03-24T14:17:46Z</time>
      </trkpt>
      <trkpt lat="44.47196" lon="1.30158">
        <ele>140.97</ele>
        <time>2025-03-24T14:18:01Z</time>
      </trkpt>
      <trkpt lat="44.47189" lon="1.30152">
        <ele>141.45</ele>
        <time>2025-03-24T14:18:16Z</time>
      </trkpt>
      <trkpt lat="44.47177" lon="1.30147">
        <ele>141.45</ele>
        <time>2025-03-24T14:18:33Z</time>
      </trkpt>
      <trkpt lat="44.47169" lon="1.30144">
        <ele>140.01</ele>
        <time>2025-03-24T14:18:41Z</time>
      </trkpt>
      <trkpt lat="44.4715" lon="1.30137">
        <ele>138.09</ele>
        <time>2025-03-24T14:19:00Z</time>
      </trkpt>
      <trkpt lat="44.47144" lon="1.30136">
        <ele>137.13</ele>
        <time>2025-03-24T14:19:06Z</time>
      </trkpt>
      <trkpt lat="44.47129" lon="1.30131">
        <ele>133.76</ele>
        <time>2025-03-24T14:19:23Z</time>
      </trkpt>
      <trkpt lat="44.47119" lon="1.30127">
        <ele>131.84</ele>
        <time>2025-03-24T14:19:36Z</time>
      </trkpt>
      <trkpt lat="44.47116" lon="1.30127">
        <ele>130.4</ele>
        <time>2025-03-24T14:19:39Z</time>
      </trkpt>
      <trkpt lat="44.47106" lon="1.30126">
        <ele>127.51</ele>
        <time>2025-03-24T14:19:52Z</time>
      </trkpt>
      <trkpt lat="44.47094" lon="1.30123">
        <ele>125.59</ele>
        <time>2025-03-24T14:20:04Z</time>
      </trkpt>
      <trkpt lat="44.47069" lon="1.30113">
        <ele>124.63</ele>
        <time>2025-03-24T14:20:24Z</time>
      </trkpt>
      <trkpt lat="44.47052" lon="1.30101">
        <ele>124.63</ele>
        <time>2025-03-24T14:20:40Z</time>
      </trkpt>
      <trkpt lat="44.47039" lon="1.30096">
        <ele>127.03</ele>
        <time>2025-03-24T14:20:56Z</time>
      </trkpt>
      <trkpt lat="44.47034" lon="1.30094">
        <ele>127.51</ele>
        <time>2025-03-24T14:21:11Z</time>
      </trkpt>
      <trkpt lat="44.47036" lon="1.30093">
        <ele>127.51</ele>
        <time>2025-03-24T14:21:35Z</time>
      </trkpt>
      <trkpt lat="44.47035" lon="1.30094">
        <ele>127.99</ele>
        <time>2025-03-24T14:21:58Z</time>
      </trkpt>
      <trkpt lat="44.47026" lon="1.30094">
        <ele>128.47</ele>
        <time>2025-03-24T14:22:14Z</time>
      </trkpt>
      <trkpt lat="44.47014" lon="1.30091">
        <ele>129.43</ele>
        <time>2025-03-24T14:22:30Z</time>
      </trkpt>
      <trkpt lat="44.47" lon="1.3009">
        <ele>130.4</ele>
        <time>2025-03-24T14:22:46Z</time>
      </trkpt>
      <trkpt lat="44.46996" lon="1.30091">
        <ele>130.88</ele>
        <time>2025-03-24T14:22:50Z</time>
      </trkpt>
      <trkpt lat="44.4699" lon="1.3009">
        <ele>131.36</ele>
        <time>2025-03-24T14:22:56Z</time>
      </trkpt>
      <trkpt lat="44.46977" lon="1.30089">
        <ele>132.32</ele>
        <time>2025-03-24T14:23:09Z</time>
      </trkpt>
      <trkpt lat="44.46963" lon="1.30088">
        <ele>132.32</ele>
        <time>2025-03-24T14:23:22Z</time>
      </trkpt>
      <trkpt lat="44.46955" lon="1.30086">
        <ele>132.32</ele>
        <time>2025-03-24T14:23:30Z</time>
      </trkpt>
      <trkpt lat="44.46943" lon="1.30084">
        <ele>132.32</ele>
        <time>2025-03-24T14:23:40Z</time>
      </trkpt>
      <trkpt lat="44.46926" lon="1.30083">
        <ele>132.8</ele>
        <time>2025-03-24T14:23:57Z</time>
      </trkpt>
      <trkpt lat="44.46924" lon="1.30083">
        <ele>132.8</ele>
        <time>2025-03-24T14:23:59Z</time>
      </trkpt>
      <trkpt lat="44.46907" lon="1.30083">
        <ele>132.8</ele>
        <time>2025-03-24T14:24:14Z</time>
      </trkpt>
      <trkpt lat="44.46894" lon="1.30084">
        <ele>132.8</ele>
        <time>2025-03-24T14:24:27Z</time>
      </trkpt>
      <trkpt lat="44.46879" lon="1.30085">
        <ele>133.28</ele>
        <time>2025-03-24T14:24:42Z</time>
      </trkpt>
      <trkpt lat="44.46871" lon="1.30083">
        <ele>133.28</ele>
        <time>2025-03-24T14:24:56Z</time>
      </trkpt>
      <trkpt lat="44.46853" lon="1.30082">
        <ele>133.28</ele>
        <time>2025-03-24T14:25:11Z</time>
      </trkpt>
      <trkpt lat="44.46848" lon="1.30081">
        <ele>133.28</ele>
        <time>2025-03-24T14:25:15Z</time>
      </trkpt>
      <trkpt lat="44.46827" lon="1.30085">
        <ele>133.28</ele>
        <time>2025-03-24T14:25:34Z</time>
      </trkpt>
      <trkpt lat="44.46818" lon="1.30089">
        <ele>133.28</ele>
        <time>2025-03-24T14:25:44Z</time>
      </trkpt>
      <trkpt lat="44.46801" lon="1.30096">
        <ele>133.28</ele>
        <time>2025-03-24T14:26:01Z</time>
      </trkpt>
      <trkpt lat="44.46797" lon="1.30098">
        <ele>131.84</ele>
        <time>2025-03-24T14:26:06Z</time>
      </trkpt>
      <trkpt lat="44.46782" lon="1.30101">
        <ele>130.4</ele>
        <time>2025-03-24T14:26:21Z</time>
      </trkpt>
      <trkpt lat="44.46762" lon="1.30105">
        <ele>128.95</ele>
        <time>2025-03-24T14:26:37Z</time>
      </trkpt>
      <trkpt lat="44.46747" lon="1.30105">
        <ele>127.99</ele>
        <time>2025-03-24T14:26:51Z</time>
      </trkpt>
      <trkpt lat="44.46731" lon="1.30107">
        <ele>126.55</ele>
        <time>2025-03-24T14:27:08Z</time>
      </trkpt>
      <trkpt lat="44.46715" lon="1.30106">
        <ele>125.59</ele>
        <time>2025-03-24T14:27:23Z</time>
      </trkpt>
      <trkpt lat="44.46705" lon="1.30098">
        <ele>124.15</ele>
        <time>2025-03-24T14:27:35Z</time>
      </trkpt>
      <trkpt lat="44.46697" lon="1.30076">
        <ele>123.67</ele>
        <time>2025-03-24T14:27:53Z</time>
      </trkpt>
      <trkpt lat="44.46695" lon="1.3007">
        <ele>124.63</ele>
        <time>2025-03-24T14:27:58Z</time>
      </trkpt>
      <trkpt lat="44.46696" lon="1.30048">
        <ele>124.63</ele>
        <time>2025-03-24T14:28:13Z</time>
      </trkpt>
      <trkpt lat="44.46695" lon="1.30033">
        <ele>124.63</ele>
        <time>2025-03-24T14:28:29Z</time>
      </trkpt>
      <trkpt lat="44.46699" lon="1.30033">
        <ele>123.19</ele>
        <time>2025-03-24T14:28:50Z</time>
      </trkpt>
      <trkpt lat="44.46695" lon="1.30028">
        <ele>123.19</ele>
        <time>2025-03-24T14:29:05Z</time>
      </trkpt>
      <trkpt lat="44.46688" lon="1.30023">
        <ele>122.71</ele>
        <time>2025-03-24T14:29:19Z</time>
      </trkpt>
      <trkpt lat="44.46678" lon="1.30019">
        <ele>122.22</ele>
        <time>2025-03-24T14:29:35Z</time>
      </trkpt>
      <trkpt lat="44.46662" lon="1.30017">
        <ele>121.26</ele>
        <time>2025-03-24T14:29:52Z</time>
      </trkpt>
      <trkpt lat="44.46656" lon="1.30015">
        <ele>120.78</ele>
        <time>2025-03-24T14:29:59Z</time>
      </trkpt>
      <trkpt lat="44.46637" lon="1.30019">
        <ele>118.86</ele>
        <time>2025-03-24T14:30:18Z</time>
      </trkpt>
      <trkpt lat="44.46625" lon="1.30015">
        <ele>115.98</ele>
        <time>2025-03-24T14:30:31Z</time>
      </trkpt>
      <trkpt lat="44.4661" lon="1.30015">
        <ele>113.09</ele>
        <time>2025-03-24T14:30:48Z</time>
      </trkpt>
      <trkpt lat="44.46599" lon="1.30021">
        <ele>110.69</ele>
        <time>2025-03-24T14:31:03Z</time>
      </trkpt>
      <trkpt lat="44.46588" lon="1.30006">
        <ele>107.81</ele>
        <time>2025-03-24T14:31:19Z</time>
      </trkpt>
      <trkpt lat="44.46578" lon="1.30001">
        <ele>105.4</ele>
        <time>2025-03-24T14:31:35Z</time>
      </trkpt>
      <trkpt lat="44.4657" lon="1.29991">
        <ele>102.52</ele>
        <time>2025-03-24T14:31:49Z</time>
      </trkpt>
      <trkpt lat="44.46559" lon="1.29972">
        <ele>100.11</ele>
        <time>2025-03-24T14:32:08Z</time>
      </trkpt>
      <trkpt lat="44.46556" lon="1.29966">
        <ele>99.63</ele>
        <time>2025-03-24T14:32:23Z</time>
      </trkpt>
      <trkpt lat="44.46545" lon="1.29969">
        <ele>99.63</ele>
        <time>2025-03-24T14:32:40Z</time>
      </trkpt>
      <trkpt lat="44.46536" lon="1.29972">
        <ele>99.15</ele>
        <time>2025-03-24T14:32:50Z</time>
      </trkpt>
      <trkpt lat="44.46526" lon="1.29969">
        <ele>99.15</ele>
        <time>2025-03-24T14:33:02Z</time>
      </trkpt>
      <trkpt lat="44.46523" lon="1.29966">
        <ele>99.15</ele>
        <time>2025-03-24T14:33:06Z</time>
      </trkpt>
      <trkpt lat="44.46513" lon="1.29964">
        <ele>99.15</ele>
        <time>2025-03-24T14:33:22Z</time>
      </trkpt>
      <trkpt lat="44.46509" lon="1.29967">
        <ele>99.15</ele>
        <time>2025-03-24T14:33:42Z</time>
      </trkpt>
      <trkpt lat="44.46509" lon="1.29964">
        <ele>99.15</ele>
        <time>2025-03-24T14:34:01Z</time>
      </trkpt>
      <trkpt lat="44.4651" lon="1.29964">
        <ele>98.67</ele>
        <time>2025-03-24T14:34:19Z</time>
      </trkpt>
      <trkpt lat="44.46514" lon="1.29957">
        <ele>98.67</ele>
        <time>2025-03-24T14:34:37Z</time>
      </trkpt>
      <trkpt lat="44.46509" lon="1.29951">
        <ele>98.67</ele>
        <time>2025-03-24T14:34:52Z</time>
      </trkpt>
      <trkpt lat="44.46496" lon="1.2994">
        <ele>100.11</ele>
        <time>2025-03-24T14:35:07Z</time>
      </trkpt>
      <trkpt lat="44.46491" lon="1.29944">
        <ele>100.11</ele>
        <time>2025-03-24T14:35:13Z</time>
      </trkpt>
      <trkpt lat="44.46477" lon="1.29965">
        <ele>100.6</ele>
        <time>2025-03-24T14:35:32Z</time>
      </trkpt>
      <trkpt lat="44.46468" lon="1.29985">
        <ele>101.56</ele>
        <time>2025-03-24T14:35:48Z</time>
      </trkpt>
      <trkpt lat="44.46464" lon="1.29991">
        <ele>102.52</ele>
        <time>2025-03-24T14:35:53Z</time>
      </trkpt>
      <trkpt lat="44.46452" lon="1.29995">
        <ele>102.52</ele>
        <time>2025-03-24T14:36:04Z</time>
      </trkpt>
      <trkpt lat="44.46431" lon="1.29993">
        <ele>102.52</ele>
        <time>2025-03-24T14:36:22Z</time>
      </trkpt>
      <trkpt lat="44.46416" lon="1.29994">
        <ele>103.48</ele>
        <time>2025-03-24T14:36:35Z</time>
      </trkpt>
      <trkpt lat="44.46413" lon="1.29993">
        <ele>103.48</ele>
        <time>2025-03-24T14:36:38Z</time>
      </trkpt>
      <trkpt lat="44.4641" lon="1.29992">
        <ele>103.48</ele>
        <time>2025-03-24T14:36:41Z</time>
      </trkpt>
      <trkpt lat="44.464" lon="1.29992">
        <ele>103.48</ele>
        <time>2025-03-24T14:36:50Z</time>
      </trkpt>
      <trkpt lat="44.46394" lon="1.29991">
        <ele>103.48</ele>
        <time>2025-03-24T14:36:56Z</time>
      </trkpt>
      <trkpt lat="44.4638" lon="1.2999">
        <ele>103.96</ele>
        <time>2025-03-24T14:37:09Z</time>
      </trkpt>
      <trkpt lat="44.46363" lon="1.2999">
        <ele>103.96</ele>
        <time>2025-03-24T14:37:23Z</time>
      </trkpt>
      <trkpt lat="44.46355" lon="1.29989">
        <ele>104.44</ele>
        <time>2025-03-24T14:37:30Z</time>
      </trkpt>
      <trkpt lat="44.4634" lon="1.29989">
        <ele>104.92</ele>
        <time>2025-03-24T14:37:42Z</time>
      </trkpt>
      <trkpt lat="44.46323" lon="1.29997">
        <ele>104.92</ele>
        <time>2025-03-24T14:37:57Z</time>
      </trkpt>
      <trkpt lat="44.46319" lon="1.30001">
        <ele>103.96</ele>
        <time>2025-03-24T14:38:02Z</time>
      </trkpt>
      <trkpt lat="44.46299" lon="1.3001">
        <ele>103.48</ele>
        <time>2025-03-24T14:38:19Z</time>
      </trkpt>
      <trkpt lat="44.4628" lon="1.30015">
        <ele>103.48</ele>
        <time>2025-03-24T14:38:35Z</time>
      </trkpt>
      <trkpt lat="44.46264" lon="1.30018">
        <ele>103</ele>
        <time>2025-03-24T14:38:50Z</time>
      </trkpt>
      <trkpt lat="44.46257" lon="1.30021">
        <ele>104.44</ele>
        <time>2025-03-24T14:38:56Z</time>
      </trkpt>
      <trkpt lat="44.46241" lon="1.3003">
        <ele>104.44</ele>
        <time>2025-03-24T14:39:12Z</time>
      </trkpt>
      <trkpt lat="44.46231" lon="1.30053">
        <ele>103.96</ele>
        <time>2025-03-24T14:39:27Z</time>
      </trkpt>
      <trkpt lat="44.46227" lon="1.30069">
        <ele>103.96</ele>
        <time>2025-03-24T14:39:41Z</time>
      </trkpt>
      <trkpt lat="44.46221" lon="1.30089">
        <ele>103.96</ele>
        <time>2025-03-24T14:39:56Z</time>
      </trkpt>
      <trkpt lat="44.46217" lon="1.30108">
        <ele>103.96</ele>
        <time>2025-03-24T14:40:10Z</time>
      </trkpt>
      <trkpt lat="44.46215" lon="1.30112">
        <ele>103.96</ele>
        <time>2025-03-24T14:40:27Z</time>
      </trkpt>
      <trkpt lat="44.46216" lon="1.30114">
        <ele>103.96</ele>
        <time>2025-03-24T14:40:47Z</time>
      </trkpt>
      <trkpt lat="44.46216" lon="1.3012">
        <ele>103.96</ele>
        <time>2025-03-24T14:41:09Z</time>
      </trkpt>
      <trkpt lat="44.46219" lon="1.30123">
        <ele>103.48</ele>
        <time>2025-03-24T14:41:26Z</time>
      </trkpt>
      <trkpt lat="44.46222" lon="1.30123">
        <ele>103.48</ele>
        <time>2025-03-24T14:41:50Z</time>
      </trkpt>
      <trkpt lat="44.4622" lon="1.30123">
        <ele>103.48</ele>
        <time>2025-03-24T14:42:19Z</time>
      </trkpt>
      <trkpt lat="44.46229" lon="1.30125">
        <ele>103.48</ele>
        <time>2025-03-24T14:42:41Z</time>
      </trkpt>
      <trkpt lat="44.46232" lon="1.30122">
        <ele>103.48</ele>
        <time>2025-03-24T14:42:56Z</time>
      </trkpt>
      <trkpt lat="44.46232" lon="1.30126">
        <ele>103.48</ele>
        <time>2025-03-24T14:43:14Z</time>
      </trkpt>
      <trkpt lat="44.46234" lon="1.30128">
        <ele>103.48</ele>
        <time>2025-03-24T14:43:29Z</time>
      </trkpt>
      <trkpt lat="44.4624" lon="1.30127">
        <ele>103.48</ele>
        <time>2025-03-24T14:43:33Z</time>
      </trkpt>
      <trkpt lat="44.46257" lon="1.30128">
        <ele>103.48</ele>
        <time>2025-03-24T14:43:49Z</time>
      </trkpt>
      <trkpt lat="44.46268" lon="1.30128">
        <ele>103.48</ele>
        <time>2025-03-24T14:44:05Z</time>
      </trkpt>
      <trkpt lat="44.46278" lon="1.30128">
        <ele>103.48</ele>
        <time>2025-03-24T14:44:15Z</time>
      </trkpt>
      <trkpt lat="44.46282" lon="1.30128">
        <ele>102.52</ele>
        <time>2025-03-24T14:44:19Z</time>
      </trkpt>
      <trkpt lat="44.46299" lon="1.3013">
        <ele>102.52</ele>
        <time>2025-03-24T14:44:35Z</time>
      </trkpt>
      <trkpt lat="44.46313" lon="1.30127">
        <ele>102.52</ele>
        <time>2025-03-24T14:44:50Z</time>
      </trkpt>
      <trkpt lat="44.46326" lon="1.30122">
        <ele>102.04</ele>
        <time>2025-03-24T14:45:04Z</time>
      </trkpt>
      <trkpt lat="44.46336" lon="1.30119">
        <ele>102.04</ele>
        <time>2025-03-24T14:45:14Z</time>
      </trkpt>
      <trkpt lat="44.46352" lon="1.30111">
        <ele>101.08</ele>
        <time>2025-03-24T14:45:29Z</time>
      </trkpt>
      <trkpt lat="44.46374" lon="1.30097">
        <ele>101.08</ele>
        <time>2025-03-24T14:45:47Z</time>
      </trkpt>
      <trkpt lat="44.46393" lon="1.30093">
        <ele>101.08</ele>
        <time>2025-03-24T14:46:03Z</time>
      </trkpt>
      <trkpt lat="44.46413" lon="1.30089">
        <ele>100.6</ele>
        <time>2025-03-24T14:46:19Z</time>
      </trkpt>
      <trkpt lat="44.46425" lon="1.30081">
        <ele>100.11</ele>
        <time>2025-03-24T14:46:30Z</time>
      </trkpt>
      <trkpt lat="44.46431" lon="1.3008">
        <ele>99.63</ele>
        <time>2025-03-24T14:46:36Z</time>
      </trkpt>
      <trkpt lat="44.46433" lon="1.30078">
        <ele>99.63</ele>
        <time>2025-03-24T14:46:53Z</time>
      </trkpt>
      <trkpt lat="44.46445" lon="1.30075">
        <ele>99.63</ele>
        <time>2025-03-24T14:47:06Z</time>
      </trkpt>
      <trkpt lat="44.46459" lon="1.30072">
        <ele>99.15</ele>
        <time>2025-03-24T14:47:21Z</time>
      </trkpt>
      <trkpt lat="44.4646" lon="1.30072">
        <ele>99.15</ele>
        <time>2025-03-24T14:47:23Z</time>
      </trkpt>
      <trkpt lat="44.46465" lon="1.30068">
        <ele>99.15</ele>
        <time>2025-03-24T14:47:27Z</time>
      </trkpt>
      <trkpt lat="44.46472" lon="1.30059">
        <ele>98.67</ele>
        <time>2025-03-24T14:47:43Z</time>
      </trkpt>
      <trkpt lat="44.46477" lon="1.30046">
        <ele>99.15</ele>
        <time>2025-03-24T14:47:57Z</time>
      </trkpt>
      <trkpt lat="44.46487" lon="1.30025">
        <ele>99.15</ele>
        <time>2025-03-24T14:48:16Z</time>
      </trkpt>
      <trkpt lat="44.46495" lon="1.30018">
        <ele>99.15</ele>
        <time>2025-03-24T14:48:27Z</time>
      </trkpt>
      <trkpt lat="44.46506" lon="1.30004">
        <ele>99.15</ele>
        <time>2025-03-24T14:48:40Z</time>
      </trkpt>
      <trkpt lat="44.46506" lon="1.29998">
        <ele>98.67</ele>
        <time>2025-03-24T14:48:54Z</time>
      </trkpt>
      <trkpt lat="44.46506" lon="1.29997">
        <ele>97.71</ele>
        <time>2025-03-24T14:49:10Z</time>
      </trkpt>
      <trkpt lat="44.46509" lon="1.29997">
        <ele>97.71</ele>
        <time>2025-03-24T14:49:42Z</time>
      </trkpt>
      <trkpt lat="44.46508" lon="1.29996">
        <ele>97.71</ele>
        <time>2025-03-24T14:50:11Z</time>
      </trkpt>
      <trkpt lat="44.46504" lon="1.29997">
        <ele>99.63</ele>
        <time>2025-03-24T14:50:33Z</time>
      </trkpt>
      <trkpt lat="44.46505" lon="1.29995">
        <ele>98.67</ele>
        <time>2025-03-24T14:50:53Z</time>
      </trkpt>
      <trkpt lat="44.46507" lon="1.29998">
        <ele>98.67</ele>
        <time>2025-03-24T14:51:12Z</time>
      </trkpt>
      <trkpt lat="44.46504" lon="1.30003">
        <ele>98.67</ele>
        <time>2025-03-24T14:51:26Z</time>
      </trkpt>
      <trkpt lat="44.46503" lon="1.29996">
        <ele>98.67</ele>
        <time>2025-03-24T14:51:38Z</time>
      </trkpt>
      <trkpt lat="44.46506" lon="1.29992">
        <ele>98.67</ele>
        <time>2025-03-24T14:51:53Z</time>
      </trkpt>
      <trkpt lat="44.46507" lon="1.29986">
        <ele>98.67</ele>
        <time>2025-03-24T14:52:08Z</time>
      </trkpt>
      <trkpt lat="44.46511" lon="1.29981">
        <ele>98.67</ele>
        <time>2025-03-24T14:52:22Z</time>
      </trkpt>
      <trkpt lat="44.46514" lon="1.29977">
        <ele>98.67</ele>
        <time>2025-03-24T14:52:35Z</time>
      </trkpt>
      <trkpt lat="44.46516" lon="1.29975">
        <ele>98.67</ele>
        <time>2025-03-24T14:52:57Z</time>
      </trkpt>
      <trkpt lat="44.46517" lon="1.29973">
        <ele>98.67</ele>
        <time>2025-03-24T14:53:12Z</time>
      </trkpt>
      <trkpt lat="44.46519" lon="1.29966">
        <ele>98.67</ele>
        <time>2025-03-24T14:53:27Z</time>
      </trkpt>
      <trkpt lat="44.46515" lon="1.29957">
        <ele>98.67</ele>
        <time>2025-03-24T14:53:41Z</time>
      </trkpt>
      <trkpt lat="44.46516" lon="1.2995">
        <ele>98.67</ele>
        <time>2025-03-24T14:53:56Z</time>
      </trkpt>
      <trkpt lat="44.46512" lon="1.29941">
        <ele>98.67</ele>
        <time>2025-03-24T14:54:40Z</time>
      </trkpt>
      <trkpt lat="44.46518" lon="1.2996">
        <ele>98.67</ele>
        <time>2025-03-24T14:54:58Z</time>
      </trkpt>
      <trkpt lat="44.46516" lon="1.29974">
        <ele>98.67</ele>
        <time>2025-03-24T14:55:12Z</time>
      </trkpt>
      <trkpt lat="44.46512" lon="1.29981">
        <ele>98.67</ele>
        <time>2025-03-24T14:55:31Z</time>
      </trkpt>
      <trkpt lat="44.46508" lon="1.29981">
        <ele>98.67</ele>
        <time>2025-03-24T14:55:51Z</time>
      </trkpt>
      <trkpt lat="44.46507" lon="1.29987">
        <ele>98.67</ele>
        <time>2025-03-24T14:56:06Z</time>
      </trkpt>
      <trkpt lat="44.46508" lon="1.29989">
        <ele>99.15</ele>
        <time>2025-03-24T14:56:29Z</time>
      </trkpt>
      <trkpt lat="44.46516" lon="1.29993">
        <ele>99.15</ele>
        <time>2025-03-24T14:56:43Z</time>
      </trkpt>
      <trkpt lat="44.46522" lon="1.29995">
        <ele>99.15</ele>
        <time>2025-03-24T14:56:58Z</time>
      </trkpt>
      <trkpt lat="44.46518" lon="1.29995">
        <ele>99.15</ele>
        <time>2025-03-24T14:57:07Z</time>
      </trkpt>
      <trkpt lat="44.4651" lon="1.29993">
        <ele>99.15</ele>
        <time>2025-03-24T14:57:24Z</time>
      </trkpt>
      <trkpt lat="44.46512" lon="1.29995">
        <ele>99.15</ele>
        <time>2025-03-24T14:57:43Z</time>
      </trkpt>
      <trkpt lat="44.46513" lon="1.29995">
        <ele>99.15</ele>
        <time>2025-03-24T14:57:44Z</time>
      </trkpt>
      <trkpt lat="44.46521" lon="1.30001">
        <ele>99.15</ele>
        <time>2025-03-24T14:58:01Z</time>
      </trkpt>
      <trkpt lat="44.46531" lon="1.30015">
        <ele>99.15</ele>
        <time>2025-03-24T14:58:17Z</time>
      </trkpt>
      <trkpt lat="44.46532" lon="1.30019">
        <ele>99.15</ele>
        <time>2025-03-24T14:58:30Z</time>
      </trkpt>
      <trkpt lat="44.46527" lon="1.30007">
        <ele>99.15</ele>
        <time>2025-03-24T14:58:48Z</time>
      </trkpt>
      <trkpt lat="44.46523" lon="1.29995">
        <ele>99.15</ele>
        <time>2025-03-24T14:59:04Z</time>
      </trkpt>
      <trkpt lat="44.46526" lon="1.29996">
        <ele>99.15</ele>
        <time>2025-03-24T14:59:26Z</time>
      </trkpt>
      <trkpt lat="44.46532" lon="1.29995">
        <ele>98.67</ele>
        <time>2025-03-24T14:59:50Z</time>
      </trkpt>
      <trkpt lat="44.46523" lon="1.29991">
        <ele>98.67</ele>
        <time>2025-03-24T15:00:28Z</time>
      </trkpt>
      <trkpt lat="44.46523" lon="1.29988">
        <ele>98.67</ele>
        <time>2025-03-24T15:00:35Z</time>
      </trkpt>
      <trkpt lat="44.46525" lon="1.29982">
        <ele>98.67</ele>
        <time>2025-03-24T15:00:39Z</time>
      </trkpt>
      <trkpt lat="44.46537" lon="1.29968">
        <ele>98.67</ele>
        <time>2025-03-24T15:00:56Z</time>
      </trkpt>
      <trkpt lat="44.46548" lon="1.2996">
        <ele>98.67</ele>
        <time>2025-03-24T15:01:11Z</time>
      </trkpt>
      <trkpt lat="44.46565" lon="1.29951">
        <ele>98.67</ele>
        <time>2025-03-24T15:01:28Z</time>
      </trkpt>
      <trkpt lat="44.46572" lon="1.29944">
        <ele>98.67</ele>
        <time>2025-03-24T15:01:43Z</time>
      </trkpt>
      <trkpt lat="44.46574" lon="1.29943">
        <ele>100.11</ele>
        <time>2025-03-24T15:01:45Z</time>
      </trkpt>
      <trkpt lat="44.46585" lon="1.29935">
        <ele>100.11</ele>
        <time>2025-03-24T15:01:59Z</time>
      </trkpt>
      <trkpt lat="44.46601" lon="1.29924">
        <ele>100.11</ele>
        <time>2025-03-24T15:02:16Z</time>
      </trkpt>
      <trkpt lat="44.46617" lon="1.29909">
        <ele>100.11</ele>
        <time>2025-03-24T15:02:33Z</time>
      </trkpt>
      <trkpt lat="44.46632" lon="1.29893">
        <ele>100.11</ele>
        <time>2025-03-24T15:02:51Z</time>
      </trkpt>
      <trkpt lat="44.46633" lon="1.29892">
        <ele>100.11</ele>
        <time>2025-03-24T15:02:52Z</time>
      </trkpt>
      <trkpt lat="44.46639" lon="1.29885">
        <ele>100.11</ele>
        <time>2025-03-24T15:02:59Z</time>
      </trkpt>
      <trkpt lat="44.46643" lon="1.29883">
        <ele>100.11</ele>
        <time>2025-03-24T15:03:02Z</time>
      </trkpt>
      <trkpt lat="44.46646" lon="1.29882">
        <ele>100.11</ele>
        <time>2025-03-24T15:03:04Z</time>
      </trkpt>
      <trkpt lat="44.46663" lon="1.2987">
        <ele>100.11</ele>
        <time>2025-03-24T15:03:22Z</time>
      </trkpt>
      <trkpt lat="44.46674" lon="1.29862">
        <ele>100.11</ele>
        <time>2025-03-24T15:03:35Z</time>
      </trkpt>
      <trkpt lat="44.46679" lon="1.2986">
        <ele>100.11</ele>
        <time>2025-03-24T15:03:40Z</time>
      </trkpt>
      <trkpt lat="44.46682" lon="1.29857">
        <ele>100.11</ele>
        <time>2025-03-24T15:03:43Z</time>
      </trkpt>
      <trkpt lat="44.46698" lon="1.29847">
        <ele>100.11</ele>
        <time>2025-03-24T15:04:00Z</time>
      </trkpt>
      <trkpt lat="44.46715" lon="1.29838">
        <ele>100.11</ele>
        <time>2025-03-24T15:04:15Z</time>
      </trkpt>
      <trkpt lat="44.46732" lon="1.2983">
        <ele>100.11</ele>
        <time>2025-03-24T15:04:31Z</time>
      </trkpt>
      <trkpt lat="44.46752" lon="1.29818">
        <ele>100.11</ele>
        <time>2025-03-24T15:04:50Z</time>
      </trkpt>
      <trkpt lat="44.46771" lon="1.29803">
        <ele>100.11</ele>
        <time>2025-03-24T15:05:07Z</time>
      </trkpt>
      <trkpt lat="44.46788" lon="1.29798">
        <ele>100.11</ele>
        <time>2025-03-24T15:05:24Z</time>
      </trkpt>
      <trkpt lat="44.46806" lon="1.29789">
        <ele>100.11</ele>
        <time>2025-03-24T15:05:42Z</time>
      </trkpt>
      <trkpt lat="44.46829" lon="1.29775">
        <ele>100.11</ele>
        <time>2025-03-24T15:06:02Z</time>
      </trkpt>
      <trkpt lat="44.46834" lon="1.29772">
        <ele>98.67</ele>
        <time>2025-03-24T15:06:07Z</time>
      </trkpt>
      <trkpt lat="44.46853" lon="1.29763">
        <ele>98.67</ele>
        <time>2025-03-24T15:06:24Z</time>
      </trkpt>
      <trkpt lat="44.46862" lon="1.29755">
        <ele>98.67</ele>
        <time>2025-03-24T15:06:35Z</time>
      </trkpt>
      <trkpt lat="44.46883" lon="1.29743">
        <ele>98.67</ele>
        <time>2025-03-24T15:06:52Z</time>
      </trkpt>
      <trkpt lat="44.469" lon="1.29734">
        <ele>98.67</ele>
        <time>2025-03-24T15:07:09Z</time>
      </trkpt>
      <trkpt lat="44.4692" lon="1.29726">
        <ele>98.67</ele>
        <time>2025-03-24T15:07:26Z</time>
      </trkpt>
      <trkpt lat="44.46932" lon="1.2972">
        <ele>98.19</ele>
        <time>2025-03-24T15:07:41Z</time>
      </trkpt>
      <trkpt lat="44.46928" lon="1.29708">
        <ele>97.71</ele>
        <time>2025-03-24T15:07:59Z</time>
      </trkpt>
      <trkpt lat="44.46923" lon="1.29689">
        <ele>96.27</ele>
        <time>2025-03-24T15:08:16Z</time>
      </trkpt>
      <trkpt lat="44.46925" lon="1.29682">
        <ele>96.27</ele>
        <time>2025-03-24T15:08:31Z</time>
      </trkpt>
      <trkpt lat="44.46924" lon="1.29671">
        <ele>93.87</ele>
        <time>2025-03-24T15:08:48Z</time>
      </trkpt>
      <trkpt lat="44.46931" lon="1.29669">
        <ele>93.39</ele>
        <time>2025-03-24T15:09:03Z</time>
      </trkpt>
      <trkpt lat="44.46941" lon="1.29668">
        <ele>92.9</ele>
        <time>2025-03-24T15:09:20Z</time>
      </trkpt>
      <trkpt lat="44.46953" lon="1.29672">
        <ele>92.9</ele>
        <time>2025-03-24T15:09:35Z</time>
      </trkpt>
      <trkpt lat="44.46966" lon="1.29671">
        <ele>94.35</ele>
        <time>2025-03-24T15:09:50Z</time>
      </trkpt>
      <trkpt lat="44.46977" lon="1.29671">
        <ele>91.94</ele>
        <time>2025-03-24T15:10:05Z</time>
      </trkpt>
      <trkpt lat="44.46984" lon="1.29675">
        <ele>93.87</ele>
        <time>2025-03-24T15:10:16Z</time>
      </trkpt>
      <trkpt lat="44.46999" lon="1.29679">
        <ele>93.87</ele>
        <time>2025-03-24T15:10:31Z</time>
      </trkpt>
      <trkpt lat="44.47007" lon="1.29676">
        <ele>93.87</ele>
        <time>2025-03-24T15:10:42Z</time>
      </trkpt>
      <trkpt lat="44.47017" lon="1.29678">
        <ele>93.87</ele>
        <time>2025-03-24T15:10:56Z</time>
      </trkpt>
      <trkpt lat="44.47028" lon="1.29677">
        <ele>93.87</ele>
        <time>2025-03-24T15:11:10Z</time>
      </trkpt>
      <trkpt lat="44.47043" lon="1.29675">
        <ele>95.9</ele>
        <time>2025-03-24T15:22:27Z</time>
      </trkpt>
      <trkpt lat="44.47061" lon="1.29671">
        <ele>95.6</ele>
      </trkpt>
      <trkpt lat="44.47088" lon="1.29667">
        <ele>95.5</ele>
        <time>2025-03-24T15:22:28Z</time>
      </trkpt>
      <trkpt lat="44.47125" lon="1.2966">
        <ele>97.8</ele>
        <time>2025-03-24T15:22:30Z</time>
      </trkpt>
      <trkpt lat="44.47164" lon="1.29634">
        <ele>96.3</ele>
        <time>2025-03-24T15:22:46Z</time>
      </trkpt>
      <trkpt lat="44.47203" lon="1.29616">
        <ele>97.9</ele>
      </trkpt>
      <trkpt lat="44.47229" lon="1.29599">
        <ele>97.3</ele>
      </trkpt>
      <trkpt lat="44.47281" lon="1.29565">
        <ele>97.9</ele>
      </trkpt>
      <trkpt lat="44.47372" lon="1.29495">
        <ele>97.8</ele>
        <time>2025-03-24T15:26:49Z</time>
      </trkpt>
      <trkpt lat="44.47434" lon="1.2945">
        <ele>97.1</ele>
        <time>2025-03-24T15:27:51Z</time>
      </trkpt>
      <trkpt lat="44.47497" lon="1.29401">
        <ele>96.5</ele>
      </trkpt>
      <trkpt lat="44.47561" lon="1.29345">
        <ele>96.8</ele>
      </trkpt>
      <trkpt lat="44.47605" lon="1.29293">
        <ele>96</ele>
      </trkpt>
      <trkpt lat="44.47664" lon="1.29236">
        <ele>96.3</ele>
      </trkpt>
      <trkpt lat="44.47702" lon="1.29202">
        <ele>97.8</ele>
      </trkpt>
      <trkpt lat="44.47737" lon="1.29154">
        <ele>98</ele>
      </trkpt>
      <trkpt lat="44.47781" lon="1.29097">
        <ele>95.8</ele>
      </trkpt>
      <trkpt lat="44.4782" lon="1.29067">
        <ele>97.4</ele>
      </trkpt>
      <trkpt lat="44.47862" lon="1.28996">
        <ele>95.8</ele>
      </trkpt>
      <trkpt lat="44.47902" lon="1.28947">
        <ele>96.1</ele>
        <time>2025-03-24T15:42:12Z</time>
      </trkpt>
      <trkpt lat="44.47915" lon="1.28948">
        <ele>97.1</ele>
        <time>2025-03-24T15:42:29Z</time>
      </trkpt>
      <trkpt lat="44.4793" lon="1.28961">
        <ele>162.6</ele>
        <time>2025-03-24T15:42:51Z</time>
      </trkpt>
      <trkpt lat="44.47939" lon="1.28966">
        <ele>162.6</ele>
        <time>2025-03-24T15:43:05Z</time>
      </trkpt>
      <trkpt lat="44.47941" lon="1.28978">
        <ele>162.6</ele>
        <time>2025-03-24T15:43:20Z</time>
      </trkpt>
      <trkpt lat="44.47931" lon="1.28989">
        <ele>164.52</ele>
        <time>2025-03-24T15:43:39Z</time>
      </trkpt>
      <trkpt lat="44.47934" lon="1.28993">
        <ele>165</ele>
        <time>2025-03-24T15:43:53Z</time>
      </trkpt>
      <trkpt lat="44.47934" lon="1.28992">
        <ele>164.52</ele>
        <time>2025-03-24T15:43:59Z</time>
      </trkpt>
      <trkpt lat="44.47927" lon="1.28995">
        <ele>164.52</ele>
        <time>2025-03-24T15:44:04Z</time>
      </trkpt>
      <trkpt lat="44.47916" lon="1.29011">
        <ele>165.48</ele>
        <time>2025-03-24T15:44:21Z</time>
      </trkpt>
      <trkpt lat="44.4791" lon="1.29018">
        <ele>165</ele>
        <time>2025-03-24T15:44:42Z</time>
      </trkpt>
      <trkpt lat="44.47909" lon="1.29019">
        <ele>165</ele>
        <time>2025-03-24T15:44:43Z</time>
      </trkpt>
      <trkpt lat="44.47898" lon="1.29014">
        <ele>165.48</ele>
        <time>2025-03-24T15:45:00Z</time>
      </trkpt>
      <trkpt lat="44.47897" lon="1.29009">
        <ele>165.48</ele>
        <time>2025-03-24T15:45:03Z</time>
      </trkpt>
      <trkpt lat="44.47895" lon="1.28995">
        <ele>165</ele>
        <time>2025-03-24T15:45:12Z</time>
      </trkpt>
      <trkpt lat="44.47864" lon="1.2889">
        <ele>160.68</ele>
        <time>2025-03-24T15:47:24Z</time>
      </trkpt>
      <trkpt lat="44.4786" lon="1.2885">
        <ele>159.72</ele>
        <time>2025-03-24T15:47:47Z</time>
      </trkpt>
      <trkpt lat="44.47852" lon="1.28818">
        <ele>159.24</ele>
        <time>2025-03-24T15:48:07Z</time>
      </trkpt>
      <trkpt lat="44.47839" lon="1.28791">
        <ele>158.27</ele>
        <time>2025-03-24T15:48:25Z</time>
      </trkpt>
      <trkpt lat="44.47831" lon="1.2878">
        <ele>158.27</ele>
        <time>2025-03-24T15:48:35Z</time>
      </trkpt>
      <trkpt lat="44.47828" lon="1.28768">
        <ele>157.79</ele>
        <time>2025-03-24T15:48:42Z</time>
      </trkpt>
      <trkpt lat="44.47826" lon="1.28763">
        <ele>156.35</ele>
        <time>2025-03-24T15:48:45Z</time>
      </trkpt>
      <trkpt lat="44.47825" lon="1.28758">
        <ele>156.35</ele>
        <time>2025-03-24T15:48:47Z</time>
      </trkpt>
      <trkpt lat="44.47828" lon="1.28752">
        <ele>157.79</ele>
        <time>2025-03-24T15:48:51Z</time>
      </trkpt>
      <trkpt lat="44.47826" lon="1.28739">
        <ele>157.79</ele>
        <time>2025-03-24T15:49:02Z</time>
      </trkpt>
      <trkpt lat="44.47818" lon="1.28733">
        <ele>157.31</ele>
        <time>2025-03-24T15:49:16Z</time>
      </trkpt>
      <trkpt lat="44.47811" lon="1.28727">
        <ele>156.35</ele>
        <time>2025-03-24T15:49:38Z</time>
      </trkpt>
      <trkpt lat="44.47816" lon="1.28718">
        <ele>155.87</ele>
        <time>2025-03-24T15:49:54Z</time>
      </trkpt>
      <trkpt lat="44.47815" lon="1.28717">
        <ele>154.91</ele>
        <time>2025-03-24T15:50:15Z</time>
      </trkpt>
      <trkpt lat="44.47819" lon="1.28715">
        <ele>154.43</ele>
        <time>2025-03-24T15:50:31Z</time>
      </trkpt>
      <trkpt lat="44.47819" lon="1.28713">
        <ele>152.99</ele>
        <time>2025-03-24T15:50:41Z</time>
      </trkpt>
      <trkpt lat="44.47817" lon="1.28716">
        <ele>152.51</ele>
        <time>2025-03-24T15:51:00Z</time>
      </trkpt>
      <trkpt lat="44.47816" lon="1.28717">
        <ele>152.03</ele>
        <time>2025-03-24T15:51:17Z</time>
      </trkpt>
      <trkpt lat="44.4782" lon="1.28722">
        <ele>154.91</ele>
        <time>2025-03-24T15:51:33Z</time>
      </trkpt>
      <trkpt lat="44.47805" lon="1.28719">
        <ele>157.31</ele>
        <time>2025-03-24T15:51:50Z</time>
      </trkpt>
      <trkpt lat="44.47808" lon="1.28721">
        <ele>158.75</ele>
        <time>2025-03-24T15:52:06Z</time>
      </trkpt>
      <trkpt lat="44.47811" lon="1.28724">
        <ele>160.2</ele>
        <time>2025-03-24T15:52:19Z</time>
      </trkpt>
      <trkpt lat="44.47807" lon="1.28732">
        <ele>162.12</ele>
        <time>2025-03-24T15:52:32Z</time>
      </trkpt>
      <trkpt lat="44.47799" lon="1.28742">
        <ele>164.52</ele>
        <time>2025-03-24T15:52:52Z</time>
      </trkpt>
      <trkpt lat="44.47799" lon="1.28751">
        <ele>165.48</ele>
        <time>2025-03-24T15:53:08Z</time>
      </trkpt>
      <trkpt lat="44.47786" lon="1.28755">
        <ele>166.45</ele>
        <time>2025-03-24T15:53:24Z</time>
      </trkpt>
      <trkpt lat="44.47776" lon="1.2876">
        <ele>168.37</ele>
        <time>2025-03-24T15:53:43Z</time>
      </trkpt>
      <trkpt lat="44.4777" lon="1.28764">
        <ele>169.33</ele>
        <time>2025-03-24T15:53:54Z</time>
      </trkpt>
      <trkpt lat="44.47769" lon="1.28764">
        <ele>169.33</ele>
        <time>2025-03-24T15:53:55Z</time>
      </trkpt>
      <trkpt lat="44.47762" lon="1.28771">
        <ele>170.77</ele>
        <time>2025-03-24T15:54:07Z</time>
      </trkpt>
      <trkpt lat="44.47753" lon="1.28771">
        <ele>172.21</ele>
        <time>2025-03-24T15:54:22Z</time>
      </trkpt>
      <trkpt lat="44.47749" lon="1.28771">
        <ele>173.66</ele>
        <time>2025-03-24T15:54:39Z</time>
      </trkpt>
      <trkpt lat="44.47746" lon="1.28773">
        <ele>174.14</ele>
        <time>2025-03-24T15:54:53Z</time>
      </trkpt>
      <trkpt lat="44.47742" lon="1.28776">
        <ele>175.58</ele>
        <time>2025-03-24T15:55:10Z</time>
      </trkpt>
      <trkpt lat="44.47738" lon="1.28775">
        <ele>176.54</ele>
        <time>2025-03-24T15:55:27Z</time>
      </trkpt>
      <trkpt lat="44.47734" lon="1.28773">
        <ele>177.98</ele>
        <time>2025-03-24T15:55:39Z</time>
      </trkpt>
      <trkpt lat="44.47732" lon="1.28777">
        <ele>179.42</ele>
        <time>2025-03-24T15:55:55Z</time>
      </trkpt>
      <trkpt lat="44.47726" lon="1.28779">
        <ele>180.38</ele>
        <time>2025-03-24T15:56:11Z</time>
      </trkpt>
      <trkpt lat="44.4772" lon="1.28781">
        <ele>181.83</ele>
        <time>2025-03-24T15:56:25Z</time>
      </trkpt>
      <trkpt lat="44.4771" lon="1.28783">
        <ele>183.27</ele>
        <time>2025-03-24T15:56:40Z</time>
      </trkpt>
      <trkpt lat="44.47708" lon="1.28783">
        <ele>183.75</ele>
        <time>2025-03-24T15:56:56Z</time>
      </trkpt>
      <trkpt lat="44.47705" lon="1.28782">
        <ele>183.75</ele>
        <time>2025-03-24T15:57:15Z</time>
      </trkpt>
      <trkpt lat="44.47699" lon="1.28781">
        <ele>182.79</ele>
        <time>2025-03-24T15:57:46Z</time>
      </trkpt>
      <trkpt lat="44.47695" lon="1.28784">
        <ele>184.71</ele>
        <time>2025-03-24T15:57:57Z</time>
      </trkpt>
      <trkpt lat="44.47693" lon="1.28786">
        <ele>185.67</ele>
        <time>2025-03-24T15:58:17Z</time>
      </trkpt>
      <trkpt lat="44.47684" lon="1.2879">
        <ele>187.59</ele>
        <time>2025-03-24T15:58:31Z</time>
      </trkpt>
      <trkpt lat="44.47674" lon="1.28791">
        <ele>189.52</ele>
        <time>2025-03-24T15:58:45Z</time>
      </trkpt>
      <trkpt lat="44.47662" lon="1.28792">
        <ele>190.48</ele>
        <time>2025-03-24T15:58:59Z</time>
      </trkpt>
      <trkpt lat="44.47654" lon="1.2879">
        <ele>191.92</ele>
        <time>2025-03-24T15:59:14Z</time>
      </trkpt>
      <trkpt lat="44.47648" lon="1.28792">
        <ele>192.4</ele>
        <time>2025-03-24T15:59:32Z</time>
      </trkpt>
      <trkpt lat="44.47643" lon="1.28792">
        <ele>192.88</ele>
        <time>2025-03-24T15:59:38Z</time>
      </trkpt>
      <trkpt lat="44.4763" lon="1.28795">
        <ele>193.84</ele>
        <time>2025-03-24T15:59:54Z</time>
      </trkpt>
      <trkpt lat="44.47621" lon="1.28796">
        <ele>195.77</ele>
        <time>2025-03-24T16:00:07Z</time>
      </trkpt>
      <trkpt lat="44.47614" lon="1.28797">
        <ele>197.21</ele>
        <time>2025-03-24T16:00:22Z</time>
      </trkpt>
      <trkpt lat="44.47606" lon="1.28799">
        <ele>198.65</ele>
        <time>2025-03-24T16:00:39Z</time>
      </trkpt>
      <trkpt lat="44.476" lon="1.28803">
        <ele>200.09</ele>
        <time>2025-03-24T16:00:54Z</time>
      </trkpt>
      <trkpt lat="44.47591" lon="1.28805">
        <ele>201.53</ele>
        <time>2025-03-24T16:01:11Z</time>
      </trkpt>
      <trkpt lat="44.47585" lon="1.28807">
        <ele>202.98</ele>
        <time>2025-03-24T16:01:26Z</time>
      </trkpt>
      <trkpt lat="44.47575" lon="1.28807">
        <ele>204.42</ele>
        <time>2025-03-24T16:01:40Z</time>
      </trkpt>
      <trkpt lat="44.47565" lon="1.28807">
        <ele>205.86</ele>
        <time>2025-03-24T16:01:55Z</time>
      </trkpt>
      <trkpt lat="44.47556" lon="1.2881">
        <ele>207.78</ele>
        <time>2025-03-24T16:02:09Z</time>
      </trkpt>
      <trkpt lat="44.47551" lon="1.28812">
        <ele>209.22</ele>
        <time>2025-03-24T16:02:25Z</time>
      </trkpt>
      <trkpt lat="44.47543" lon="1.28812">
        <ele>211.63</ele>
        <time>2025-03-24T16:02:40Z</time>
      </trkpt>
      <trkpt lat="44.47541" lon="1.28813">
        <ele>212.59</ele>
        <time>2025-03-24T16:02:58Z</time>
      </trkpt>
      <trkpt lat="44.47537" lon="1.28816">
        <ele>214.51</ele>
        <time>2025-03-24T16:03:14Z</time>
      </trkpt>
      <trkpt lat="44.47535" lon="1.28817">
        <ele>214.99</ele>
        <time>2025-03-24T16:03:30Z</time>
      </trkpt>
      <trkpt lat="44.47532" lon="1.28818">
        <ele>215.47</ele>
        <time>2025-03-24T16:03:47Z</time>
      </trkpt>
      <trkpt lat="44.47531" lon="1.28817">
        <ele>215.95</ele>
        <time>2025-03-24T16:04:10Z</time>
      </trkpt>
      <trkpt lat="44.47529" lon="1.28812">
        <ele>215.47</ele>
        <time>2025-03-24T16:04:33Z</time>
      </trkpt>
      <trkpt lat="44.47532" lon="1.28814">
        <ele>214.99</ele>
        <time>2025-03-24T16:04:57Z</time>
      </trkpt>
      <trkpt lat="44.4753" lon="1.28814">
        <ele>214.51</ele>
        <time>2025-03-24T16:05:29Z</time>
      </trkpt>
      <trkpt lat="44.4753" lon="1.28815">
        <ele>214.03</ele>
        <time>2025-03-24T16:05:53Z</time>
      </trkpt>
      <trkpt lat="44.47527" lon="1.28818">
        <ele>214.03</ele>
        <time>2025-03-24T16:06:18Z</time>
      </trkpt>
      <trkpt lat="44.47518" lon="1.28825">
        <ele>214.03</ele>
        <time>2025-03-24T16:06:32Z</time>
      </trkpt>
      <trkpt lat="44.47513" lon="1.28828">
        <ele>214.03</ele>
        <time>2025-03-24T16:06:50Z</time>
      </trkpt>
      <trkpt lat="44.47502" lon="1.28833">
        <ele>214.51</ele>
        <time>2025-03-24T16:07:02Z</time>
      </trkpt>
      <trkpt lat="44.47494" lon="1.28829">
        <ele>214.99</ele>
        <time>2025-03-24T16:07:19Z</time>
      </trkpt>
      <trkpt lat="44.47495" lon="1.28827">
        <ele>215.47</ele>
        <time>2025-03-24T16:07:29Z</time>
      </trkpt>
      <trkpt lat="44.47493" lon="1.28824">
        <ele>214.99</ele>
        <time>2025-03-24T16:07:42Z</time>
      </trkpt>
      <trkpt lat="44.47493" lon="1.28823">
        <ele>214.99</ele>
        <time>2025-03-24T16:08:07Z</time>
      </trkpt>
      <trkpt lat="44.47493" lon="1.28824">
        <ele>214.51</ele>
        <time>2025-03-24T16:08:30Z</time>
      </trkpt>
      <trkpt lat="44.47492" lon="1.28823">
        <ele>214.03</ele>
        <time>2025-03-24T16:08:52Z</time>
      </trkpt>
      <trkpt lat="44.47491" lon="1.28826">
        <ele>214.03</ele>
        <time>2025-03-24T16:09:09Z</time>
      </trkpt>
      <trkpt lat="44.47491" lon="1.28828">
        <ele>213.55</ele>
        <time>2025-03-24T16:09:33Z</time>
      </trkpt>
      <trkpt lat="44.47491" lon="1.28837">
        <ele>213.55</ele>
        <time>2025-03-24T16:09:47Z</time>
      </trkpt>
      <trkpt lat="44.47491" lon="1.28839">
        <ele>212.11</ele>
        <time>2025-03-24T16:09:50Z</time>
      </trkpt>
      <trkpt lat="44.47483" lon="1.2885">
        <ele>209.7</ele>
        <time>2025-03-24T16:10:04Z</time>
      </trkpt>
      <trkpt lat="44.47473" lon="1.28859">
        <ele>208.26</ele>
        <time>2025-03-24T16:10:19Z</time>
      </trkpt>
      <trkpt lat="44.47462" lon="1.28874">
        <ele>206.34</ele>
        <time>2025-03-24T16:10:36Z</time>
      </trkpt>
      <trkpt lat="44.47453" lon="1.28885">
        <ele>203.94</ele>
        <time>2025-03-24T16:10:50Z</time>
      </trkpt>
      <trkpt lat="44.4744" lon="1.289">
        <ele>201.05</ele>
        <time>2025-03-24T16:11:09Z</time>
      </trkpt>
      <trkpt lat="44.47427" lon="1.28911">
        <ele>199.13</ele>
        <time>2025-03-24T16:11:23Z</time>
      </trkpt>
      <trkpt lat="44.47411" lon="1.28925">
        <ele>196.73</ele>
        <time>2025-03-24T16:11:38Z</time>
      </trkpt>
      <trkpt lat="44.47397" lon="1.28941">
        <ele>194.8</ele>
        <time>2025-03-24T16:11:53Z</time>
      </trkpt>
      <trkpt lat="44.47385" lon="1.28951">
        <ele>192.88</ele>
        <time>2025-03-24T16:12:07Z</time>
      </trkpt>
      <trkpt lat="44.47368" lon="1.28962">
        <ele>190.48</ele>
        <time>2025-03-24T16:12:25Z</time>
      </trkpt>
      <trkpt lat="44.47363" lon="1.2896">
        <ele>188.56</ele>
        <time>2025-03-24T16:12:40Z</time>
      </trkpt>
      <trkpt lat="44.47354" lon="1.28956">
        <ele>186.15</ele>
        <time>2025-03-24T16:12:57Z</time>
      </trkpt>
      <trkpt lat="44.4735" lon="1.28952">
        <ele>184.71</ele>
        <time>2025-03-24T16:13:03Z</time>
      </trkpt>
      <trkpt lat="44.47339" lon="1.28944">
        <ele>182.31</ele>
        <time>2025-03-24T16:13:16Z</time>
      </trkpt>
      <trkpt lat="44.47332" lon="1.28941">
        <ele>180.87</ele>
        <time>2025-03-24T16:13:23Z</time>
      </trkpt>
      <trkpt lat="44.47321" lon="1.28934">
        <ele>177.02</ele>
        <time>2025-03-24T16:13:36Z</time>
      </trkpt>
      <trkpt lat="44.4731" lon="1.28927">
        <ele>173.66</ele>
        <time>2025-03-24T16:13:48Z</time>
      </trkpt>
      <trkpt lat="44.473" lon="1.2892">
        <ele>170.77</ele>
        <time>2025-03-24T16:13:59Z</time>
      </trkpt>
      <trkpt lat="44.47289" lon="1.28912">
        <ele>167.41</ele>
        <time>2025-03-24T16:14:10Z</time>
      </trkpt>
      <trkpt lat="44.47282" lon="1.28906">
        <ele>165</ele>
        <time>2025-03-24T16:14:18Z</time>
      </trkpt>
      <trkpt lat="44.4727" lon="1.28897">
        <ele>161.64</ele>
        <time>2025-03-24T16:14:29Z</time>
      </trkpt>
      <trkpt lat="44.47259" lon="1.28888">
        <ele>158.27</ele>
        <time>2025-03-24T16:14:40Z</time>
      </trkpt>
      <trkpt lat="44.47243" lon="1.28881">
        <ele>154.91</ele>
        <time>2025-03-24T16:14:56Z</time>
      </trkpt>
      <trkpt lat="44.47231" lon="1.2887">
        <ele>151.54</ele>
        <time>2025-03-24T16:15:10Z</time>
      </trkpt>
      <trkpt lat="44.47223" lon="1.28861">
        <ele>148.66</ele>
        <time>2025-03-24T16:15:23Z</time>
      </trkpt>
      <trkpt lat="44.47219" lon="1.28856">
        <ele>146.74</ele>
        <time>2025-03-24T16:15:37Z</time>
      </trkpt>
      <trkpt lat="44.47222" lon="1.28844">
        <ele>145.78</ele>
        <time>2025-03-24T16:15:57Z</time>
      </trkpt>
      <trkpt lat="44.47224" lon="1.28836">
        <ele>144.82</ele>
        <time>2025-03-24T16:16:04Z</time>
      </trkpt>
      <trkpt lat="44.47227" lon="1.28818">
        <ele>141.45</ele>
        <time>2025-03-24T16:16:17Z</time>
      </trkpt>
      <trkpt lat="44.4723" lon="1.28794">
        <ele>139.05</ele>
        <time>2025-03-24T16:16:33Z</time>
      </trkpt>
      <trkpt lat="44.47234" lon="1.28783">
        <ele>138.09</ele>
        <time>2025-03-24T16:16:49Z</time>
      </trkpt>
      <trkpt lat="44.47242" lon="1.28755">
        <ele>135.68</ele>
        <time>2025-03-24T16:17:08Z</time>
      </trkpt>
      <trkpt lat="44.47254" lon="1.28733">
        <ele>133.76</ele>
        <time>2025-03-24T16:17:28Z</time>
      </trkpt>
      <trkpt lat="44.47254" lon="1.28732">
        <ele>133.76</ele>
        <time>2025-03-24T16:17:29Z</time>
      </trkpt>
      <trkpt lat="44.47265" lon="1.28708">
        <ele>131.84</ele>
        <time>2025-03-24T16:17:48Z</time>
      </trkpt>
      <trkpt lat="44.47271" lon="1.28694">
        <ele>130.4</ele>
        <time>2025-03-24T16:18:01Z</time>
      </trkpt>
      <trkpt lat="44.47272" lon="1.28695">
        <ele>129.92</ele>
        <time>2025-03-24T16:18:21Z</time>
      </trkpt>
      <trkpt lat="44.47273" lon="1.28697">
        <ele>129.92</ele>
        <time>2025-03-24T16:18:36Z</time>
      </trkpt>
      <trkpt lat="44.47274" lon="1.28702">
        <ele>129.43</ele>
        <time>2025-03-24T16:19:07Z</time>
      </trkpt>
      <trkpt lat="44.47272" lon="1.28706">
        <ele>129.43</ele>
        <time>2025-03-24T16:19:36Z</time>
      </trkpt>
      <trkpt lat="44.47268" lon="1.28698">
        <ele>128.95</ele>
        <time>2025-03-24T16:20:07Z</time>
      </trkpt>
      <trkpt lat="44.47268" lon="1.28698">
        <ele>128.95</ele>
        <time>2025-03-24T16:20:28Z</time>
      </trkpt>
      <trkpt lat="44.4727" lon="1.287">
        <ele>128.95</ele>
        <time>2025-03-24T16:20:53Z</time>
      </trkpt>
      <trkpt lat="44.4727" lon="1.28705">
        <ele>128.47</ele>
        <time>2025-03-24T16:21:19Z</time>
      </trkpt>
      <trkpt lat="44.47268" lon="1.28702">
        <ele>127.99</ele>
        <time>2025-03-24T16:21:41Z</time>
      </trkpt>
      <trkpt lat="44.47277" lon="1.2869">
        <ele>127.51</ele>
        <time>2025-03-24T16:21:55Z</time>
      </trkpt>
      <trkpt lat="44.47288" lon="1.28678">
        <ele>127.51</ele>
        <time>2025-03-24T16:22:12Z</time>
      </trkpt>
      <trkpt lat="44.47301" lon="1.28654">
        <ele>126.07</ele>
        <time>2025-03-24T16:22:30Z</time>
      </trkpt>
      <trkpt lat="44.47316" lon="1.28636">
        <ele>124.63</ele>
        <time>2025-03-24T16:22:47Z</time>
      </trkpt>
      <trkpt lat="44.47332" lon="1.28627">
        <ele>123.19</ele>
        <time>2025-03-24T16:23:03Z</time>
      </trkpt>
      <trkpt lat="44.47354" lon="1.28622">
        <ele>122.22</ele>
        <time>2025-03-24T16:23:22Z</time>
      </trkpt>
      <trkpt lat="44.47377" lon="1.28614">
        <ele>121.26</ele>
        <time>2025-03-24T16:23:42Z</time>
      </trkpt>
      <trkpt lat="44.47403" lon="1.28607">
        <ele>119.34</ele>
        <time>2025-03-24T16:24:03Z</time>
      </trkpt>
      <trkpt lat="44.47425" lon="1.28599">
        <ele>116.46</ele>
        <time>2025-03-24T16:24:23Z</time>
      </trkpt>
      <trkpt lat="44.47429" lon="1.28597">
        <ele>115.98</ele>
        <time>2025-03-24T16:24:28Z</time>
      </trkpt>
      <trkpt lat="44.47446" lon="1.28594">
        <ele>115.5</ele>
        <time>2025-03-24T16:24:45Z</time>
      </trkpt>
      <trkpt lat="44.47464" lon="1.28593">
        <ele>115.5</ele>
        <time>2025-03-24T16:24:59Z</time>
      </trkpt>
      <trkpt lat="44.47487" lon="1.28598">
        <ele>114.53</ele>
        <time>2025-03-24T16:25:15Z</time>
      </trkpt>
      <trkpt lat="44.47504" lon="1.28605">
        <ele>114.05</ele>
        <time>2025-03-24T16:25:33Z</time>
      </trkpt>
      <trkpt lat="44.47526" lon="1.2861">
        <ele>113.09</ele>
        <time>2025-03-24T16:25:51Z</time>
      </trkpt>
      <trkpt lat="44.47546" lon="1.28615">
        <ele>112.61</ele>
        <time>2025-03-24T16:26:09Z</time>
      </trkpt>
      <trkpt lat="44.47548" lon="1.28615">
        <ele>112.61</ele>
        <time>2025-03-24T16:26:10Z</time>
      </trkpt>
      <trkpt lat="44.47555" lon="1.28608">
        <ele>111.65</ele>
        <time>2025-03-24T16:26:16Z</time>
      </trkpt>
      <trkpt lat="44.47557" lon="1.28597">
        <ele>111.17</ele>
        <time>2025-03-24T16:26:25Z</time>
      </trkpt>
      <trkpt lat="44.47559" lon="1.2859">
        <ele>110.69</ele>
        <time>2025-03-24T16:26:29Z</time>
      </trkpt>
      <trkpt lat="44.47563" lon="1.28576">
        <ele>110.21</ele>
        <time>2025-03-24T16:26:37Z</time>
      </trkpt>
      <trkpt lat="44.47567" lon="1.28573">
        <ele>110.21</ele>
        <time>2025-03-24T16:26:53Z</time>
      </trkpt>
      <trkpt lat="44.47566" lon="1.28576">
        <ele>110.21</ele>
        <time>2025-03-24T16:27:09Z</time>
      </trkpt>
      <trkpt lat="44.47568" lon="1.28574">
        <ele>110.21</ele>
        <time>2025-03-24T16:27:24Z</time>
      </trkpt>
      <trkpt lat="44.47571" lon="1.28546">
        <ele>110.21</ele>
        <time>2025-03-24T16:27:40Z</time>
      </trkpt>
      <trkpt lat="44.47579" lon="1.2854">
        <ele>110.21</ele>
        <time>2025-03-24T16:27:50Z</time>
      </trkpt>
      <trkpt lat="44.47593" lon="1.28549">
        <ele>109.25</ele>
        <time>2025-03-24T16:28:07Z</time>
      </trkpt>
      <trkpt lat="44.47593" lon="1.28559">
        <ele>109.25</ele>
        <time>2025-03-24T16:28:25Z</time>
      </trkpt>
      <trkpt lat="44.47593" lon="1.28561">
        <ele>109.25</ele>
        <time>2025-03-24T16:28:26Z</time>
      </trkpt>
      <trkpt lat="44.47592" lon="1.28568">
        <ele>109.25</ele>
        <time>2025-03-24T16:28:30Z</time>
      </trkpt>
      <trkpt lat="44.47593" lon="1.28575">
        <ele>108.77</ele>
        <time>2025-03-24T16:28:44Z</time>
      </trkpt>
      <trkpt lat="44.47599" lon="1.28549">
        <ele>108.29</ele>
        <time>2025-03-24T16:29:00Z</time>
      </trkpt>
      <trkpt lat="44.4762" lon="1.2854">
        <ele>106.84</ele>
        <time>2025-03-24T16:29:19Z</time>
      </trkpt>
      <trkpt lat="44.47639" lon="1.28542">
        <ele>106.84</ele>
        <time>2025-03-24T16:29:34Z</time>
      </trkpt>
      <trkpt lat="44.47646" lon="1.28545">
        <ele>106.84</ele>
        <time>2025-03-24T16:29:47Z</time>
      </trkpt>
      <trkpt lat="44.47645" lon="1.28546">
        <ele>107.81</ele>
        <time>2025-03-24T16:29:54Z</time>
      </trkpt>
      <trkpt lat="44.47646" lon="1.28549">
        <ele>106.36</ele>
        <time>2025-03-24T16:30:05Z</time>
      </trkpt>
      <trkpt lat="44.47646" lon="1.28549">
        <ele>103.96</ele>
        <time>2025-03-24T16:30:08Z</time>
      </trkpt>
      <trkpt lat="44.47646" lon="1.28549">
        <ele>108.77</ele>
        <time>2025-03-24T16:30:09Z</time>
      </trkpt>
      <trkpt lat="44.47646" lon="1.28549">
        <ele>105.88</ele>
        <time>2025-03-24T16:30:10Z</time>
      </trkpt>
      <trkpt lat="44.4765" lon="1.28549">
        <ele>106.36</ele>
        <time>2025-03-24T16:30:29Z</time>
      </trkpt>
      <trkpt lat="44.47651" lon="1.28549">
        <ele>106.36</ele>
        <time>2025-03-24T16:30:48Z</time>
      </trkpt>
      <trkpt lat="44.47651" lon="1.28549">
        <ele>105.88</ele>
        <time>2025-03-24T16:31:00Z</time>
      </trkpt>
      <trkpt lat="44.47649" lon="1.28549">
        <ele>105.88</ele>
        <time>2025-03-24T16:31:24Z</time>
      </trkpt>
      <trkpt lat="44.47654" lon="1.2855">
        <ele>106.84</ele>
        <time>2025-03-24T16:31:42Z</time>
      </trkpt>
      <trkpt lat="44.47654" lon="1.2855">
        <ele>104.92</ele>
        <time>2025-03-24T16:31:47Z</time>
      </trkpt>
    </trkseg>
  </trk>
</gpx>